<?xml version="1.0" encoding="UTF-8" standalone="no" ?>
<gpx xmlns="http://www.topografix.com/GPX/1/1" xmlns:xsi="http://www.w3.org/2001/XMLSchema-instance" xsi:schemaLocation="http://www.topografix.com/GPX/1/1 http://www.topografix.com/GPX/1/1/gpx.xsd" version="1.1" creator="VisuGPX - https://www.visugpx.com">
  <metadata>
    <name>Tour de France 2019</name>
    <desc><![CDATA[4272km en 2 mois en tandem avec notre petit chien dans le panier avant]]></desc>
  </metadata>
  <trk>
    <name><![CDATA[Tracé 20191110-082411]]></name>
    <trkseg>
      <trkpt lat="47.24335" lon="-1.6721">
        <ele>72.611</ele>
        <time>2019-11-10T07:26:05Z</time>
      </trkpt>
      <trkpt lat="47.24299" lon="-1.67239">
        <ele>63.547</ele>
        <time>2019-11-10T07:26:47Z</time>
      </trkpt>
      <trkpt lat="47.24243" lon="-1.67122">
        <ele>50.865</ele>
        <time>2019-11-10T07:27:20Z</time>
      </trkpt>
      <trkpt lat="47.24262" lon="-1.66944">
        <ele>50.729</ele>
        <time>2019-11-10T07:27:53Z</time>
      </trkpt>
      <trkpt lat="47.24358" lon="-1.66865">
        <ele>52.41</ele>
        <time>2019-11-10T07:28:26Z</time>
      </trkpt>
      <trkpt lat="47.24531" lon="-1.67034">
        <ele>49.411</ele>
        <time>2019-11-10T07:28:59Z</time>
      </trkpt>
      <trkpt lat="47.24685" lon="-1.6697">
        <ele>49.799</ele>
        <time>2019-11-10T07:29:32Z</time>
      </trkpt>
      <trkpt lat="47.24864" lon="-1.66838">
        <ele>48.008</ele>
        <time>2019-11-10T07:30:05Z</time>
      </trkpt>
      <trkpt lat="47.25064" lon="-1.66793">
        <ele>47.729</ele>
        <time>2019-11-10T07:30:38Z</time>
      </trkpt>
      <trkpt lat="47.25295" lon="-1.66849">
        <ele>45.504</ele>
        <time>2019-11-10T07:31:11Z</time>
      </trkpt>
      <trkpt lat="47.25401" lon="-1.66863">
        <ele>51.214</ele>
        <time>2019-11-10T07:31:44Z</time>
      </trkpt>
      <trkpt lat="47.2551" lon="-1.6688">
        <ele>54.915</ele>
        <time>2019-11-10T07:32:17Z</time>
      </trkpt>
      <trkpt lat="47.25625" lon="-1.66894">
        <ele>57.808</ele>
        <time>2019-11-10T07:32:50Z</time>
      </trkpt>
      <trkpt lat="47.2574" lon="-1.669">
        <ele>57.301</ele>
        <time>2019-11-10T07:33:23Z</time>
      </trkpt>
      <trkpt lat="47.2584" lon="-1.66916">
        <ele>57.938</ele>
        <time>2019-11-10T07:33:56Z</time>
      </trkpt>
      <trkpt lat="47.2594" lon="-1.66954">
        <ele>62.785</ele>
        <time>2019-11-10T07:34:29Z</time>
      </trkpt>
      <trkpt lat="47.26037" lon="-1.66997">
        <ele>62.85</ele>
        <time>2019-11-10T07:35:02Z</time>
      </trkpt>
      <trkpt lat="47.26132" lon="-1.6704">
        <ele>68.14</ele>
        <time>2019-11-10T07:35:35Z</time>
      </trkpt>
      <trkpt lat="47.2621" lon="-1.67113">
        <ele>73.705</ele>
        <time>2019-11-10T07:36:08Z</time>
      </trkpt>
      <trkpt lat="47.26247" lon="-1.67292">
        <ele>70.298</ele>
        <time>2019-11-10T07:36:41Z</time>
      </trkpt>
      <trkpt lat="47.26292" lon="-1.67525">
        <ele>67.536</ele>
        <time>2019-11-10T07:37:14Z</time>
      </trkpt>
      <trkpt lat="47.26336" lon="-1.67733">
        <ele>69.713</ele>
        <time>2019-11-10T07:37:47Z</time>
      </trkpt>
      <trkpt lat="47.26389" lon="-1.679">
        <ele>68.504</ele>
        <time>2019-11-10T07:38:20Z</time>
      </trkpt>
      <trkpt lat="47.26485" lon="-1.67968">
        <ele>71.183</ele>
        <time>2019-11-10T07:38:53Z</time>
      </trkpt>
      <trkpt lat="47.26584" lon="-1.67968">
        <ele>72.026</ele>
        <time>2019-11-10T07:39:26Z</time>
      </trkpt>
      <trkpt lat="47.26646" lon="-1.68149">
        <ele>70.728</ele>
        <time>2019-11-10T07:39:59Z</time>
      </trkpt>
      <trkpt lat="47.26712" lon="-1.68347">
        <ele>68.888</ele>
        <time>2019-11-10T07:40:32Z</time>
      </trkpt>
      <trkpt lat="47.26805" lon="-1.68525">
        <ele>66.331</ele>
        <time>2019-11-10T07:41:05Z</time>
      </trkpt>
      <trkpt lat="47.26942" lon="-1.68673">
        <ele>62.552</ele>
        <time>2019-11-10T07:41:38Z</time>
      </trkpt>
      <trkpt lat="47.27071" lon="-1.6876">
        <ele>66.586</ele>
        <time>2019-11-10T07:42:11Z</time>
      </trkpt>
      <trkpt lat="47.27106" lon="-1.68931">
        <ele>72.024</ele>
        <time>2019-11-10T07:42:44Z</time>
      </trkpt>
      <trkpt lat="47.27139" lon="-1.69056">
        <ele>73.702</ele>
        <time>2019-11-10T07:47:14Z</time>
      </trkpt>
      <trkpt lat="47.27192" lon="-1.69245">
        <ele>64.619</ele>
        <time>2019-11-10T07:47:47Z</time>
      </trkpt>
      <trkpt lat="47.27259" lon="-1.6946">
        <ele>67.396</ele>
        <time>2019-11-10T07:48:20Z</time>
      </trkpt>
      <trkpt lat="47.27378" lon="-1.69694">
        <ele>67.881</ele>
        <time>2019-11-10T07:48:53Z</time>
      </trkpt>
      <trkpt lat="47.27497" lon="-1.69848">
        <ele>57.566</ele>
        <time>2019-11-10T07:49:26Z</time>
      </trkpt>
      <trkpt lat="47.27704" lon="-1.69754">
        <ele>57.897</ele>
        <time>2019-11-10T07:49:59Z</time>
      </trkpt>
      <trkpt lat="47.27801" lon="-1.69762">
        <ele>68.61</ele>
        <time>2019-11-10T07:50:35Z</time>
      </trkpt>
      <trkpt lat="47.27835" lon="-1.6991">
        <ele>70.568</ele>
        <time>2019-11-10T07:51:08Z</time>
      </trkpt>
      <trkpt lat="47.27864" lon="-1.7007">
        <ele>69.805</ele>
        <time>2019-11-10T07:51:41Z</time>
      </trkpt>
      <trkpt lat="47.27939" lon="-1.70217">
        <ele>72.93</ele>
        <time>2019-11-10T07:52:14Z</time>
      </trkpt>
      <trkpt lat="47.28013" lon="-1.70329">
        <ele>75.158</ele>
        <time>2019-11-10T07:52:47Z</time>
      </trkpt>
      <trkpt lat="47.28085" lon="-1.70444">
        <ele>77.043</ele>
        <time>2019-11-10T07:53:20Z</time>
      </trkpt>
      <trkpt lat="47.28164" lon="-1.7057">
        <ele>79.34</ele>
        <time>2019-11-10T07:53:53Z</time>
      </trkpt>
      <trkpt lat="47.28279" lon="-1.70577">
        <ele>73.726</ele>
        <time>2019-11-10T07:54:26Z</time>
      </trkpt>
      <trkpt lat="47.28443" lon="-1.70524">
        <ele>71.975</ele>
        <time>2019-11-10T07:54:59Z</time>
      </trkpt>
      <trkpt lat="47.28588" lon="-1.70542">
        <ele>78.829</ele>
        <time>2019-11-10T07:55:32Z</time>
      </trkpt>
      <trkpt lat="47.28803" lon="-1.70519">
        <ele>72.147</ele>
        <time>2019-11-10T07:56:05Z</time>
      </trkpt>
      <trkpt lat="47.28994" lon="-1.70463">
        <ele>66.999</ele>
        <time>2019-11-10T07:56:38Z</time>
      </trkpt>
      <trkpt lat="47.29241" lon="-1.70373">
        <ele>62.446</ele>
        <time>2019-11-10T07:57:11Z</time>
      </trkpt>
      <trkpt lat="47.29472" lon="-1.70365">
        <ele>56.179</ele>
        <time>2019-11-10T07:57:44Z</time>
      </trkpt>
      <trkpt lat="47.29562" lon="-1.70562">
        <ele>61.352</ele>
        <time>2019-11-10T07:58:17Z</time>
      </trkpt>
      <trkpt lat="47.29599" lon="-1.70665">
        <ele>64.202</ele>
        <time>2019-11-10T07:58:50Z</time>
      </trkpt>
      <trkpt lat="47.29629" lon="-1.70766">
        <ele>73.956</ele>
        <time>2019-11-10T07:59:23Z</time>
      </trkpt>
      <trkpt lat="47.29709" lon="-1.70852">
        <ele>78.786</ele>
        <time>2019-11-10T07:59:56Z</time>
      </trkpt>
      <trkpt lat="47.29815" lon="-1.70909">
        <ele>75.201</ele>
        <time>2019-11-10T08:00:29Z</time>
      </trkpt>
      <trkpt lat="47.29888" lon="-1.70952">
        <ele>76.519</ele>
        <time>2019-11-10T08:01:02Z</time>
      </trkpt>
      <trkpt lat="47.29984" lon="-1.71001">
        <ele>75.165</ele>
        <time>2019-11-10T08:01:35Z</time>
      </trkpt>
      <trkpt lat="47.30081" lon="-1.71058">
        <ele>76.455</ele>
        <time>2019-11-10T08:02:08Z</time>
      </trkpt>
      <trkpt lat="47.30185" lon="-1.71114">
        <ele>80.296</ele>
        <time>2019-11-10T08:02:41Z</time>
      </trkpt>
      <trkpt lat="47.30301" lon="-1.71152">
        <ele>79.74</ele>
        <time>2019-11-10T08:03:14Z</time>
      </trkpt>
      <trkpt lat="47.30459" lon="-1.71051">
        <ele>76.85</ele>
        <time>2019-11-10T08:03:47Z</time>
      </trkpt>
      <trkpt lat="47.30655" lon="-1.71002">
        <ele>72.017</ele>
        <time>2019-11-10T08:04:20Z</time>
      </trkpt>
      <trkpt lat="47.30862" lon="-1.70955">
        <ele>64.742</ele>
        <time>2019-11-10T08:04:53Z</time>
      </trkpt>
      <trkpt lat="47.31046" lon="-1.70887">
        <ele>62.365</ele>
        <time>2019-11-10T08:05:26Z</time>
      </trkpt>
      <trkpt lat="47.31146" lon="-1.70755">
        <ele>68.687</ele>
        <time>2019-11-10T08:05:59Z</time>
      </trkpt>
      <trkpt lat="47.3123" lon="-1.70663">
        <ele>72.468</ele>
        <time>2019-11-10T08:06:32Z</time>
      </trkpt>
      <trkpt lat="47.31321" lon="-1.70571">
        <ele>71.225</ele>
        <time>2019-11-10T08:07:05Z</time>
      </trkpt>
      <trkpt lat="47.31405" lon="-1.70455">
        <ele>73.365</ele>
        <time>2019-11-10T08:07:38Z</time>
      </trkpt>
      <trkpt lat="47.31494" lon="-1.70297">
        <ele>77.49</ele>
        <time>2019-11-10T08:08:11Z</time>
      </trkpt>
      <trkpt lat="47.31592" lon="-1.70154">
        <ele>77.604</ele>
        <time>2019-11-10T08:08:44Z</time>
      </trkpt>
      <trkpt lat="47.31695" lon="-1.70032">
        <ele>76.88</ele>
        <time>2019-11-10T08:09:17Z</time>
      </trkpt>
      <trkpt lat="47.31845" lon="-1.69889">
        <ele>76.7</ele>
        <time>2019-11-10T08:09:50Z</time>
      </trkpt>
      <trkpt lat="47.31999" lon="-1.69722">
        <ele>76.91</ele>
        <time>2019-11-10T08:10:23Z</time>
      </trkpt>
      <trkpt lat="47.32145" lon="-1.69609">
        <ele>74.183</ele>
        <time>2019-11-10T08:10:59Z</time>
      </trkpt>
      <trkpt lat="47.32381" lon="-1.69801">
        <ele>65.359</ele>
        <time>2019-11-10T08:11:32Z</time>
      </trkpt>
      <trkpt lat="47.32737" lon="-1.69834">
        <ele>44.111</ele>
        <time>2019-11-10T08:12:05Z</time>
      </trkpt>
      <trkpt lat="47.32844" lon="-1.69774">
        <ele>46.877</ele>
        <time>2019-11-10T08:12:38Z</time>
      </trkpt>
      <trkpt lat="47.32924" lon="-1.69723">
        <ele>54.114</ele>
        <time>2019-11-10T08:13:11Z</time>
      </trkpt>
      <trkpt lat="47.32998" lon="-1.6969">
        <ele>58.603</ele>
        <time>2019-11-10T08:13:44Z</time>
      </trkpt>
      <trkpt lat="47.33075" lon="-1.69687">
        <ele>61.711</ele>
        <time>2019-11-10T08:14:17Z</time>
      </trkpt>
      <trkpt lat="47.33158" lon="-1.69671">
        <ele>65.454</ele>
        <time>2019-11-10T08:14:50Z</time>
      </trkpt>
      <trkpt lat="47.33256" lon="-1.69658">
        <ele>70.333</ele>
        <time>2019-11-10T08:15:23Z</time>
      </trkpt>
      <trkpt lat="47.33354" lon="-1.69657">
        <ele>76.107</ele>
        <time>2019-11-10T08:15:56Z</time>
      </trkpt>
      <trkpt lat="47.33448" lon="-1.69748">
        <ele>72.822</ele>
        <time>2019-11-10T08:16:29Z</time>
      </trkpt>
      <trkpt lat="47.33552" lon="-1.69858">
        <ele>71.116</ele>
        <time>2019-11-10T08:17:02Z</time>
      </trkpt>
      <trkpt lat="47.33682" lon="-1.69967">
        <ele>69.251</ele>
        <time>2019-11-10T08:17:35Z</time>
      </trkpt>
      <trkpt lat="47.33796" lon="-1.70067">
        <ele>73.201</ele>
        <time>2019-11-10T08:18:08Z</time>
      </trkpt>
      <trkpt lat="47.33914" lon="-1.70077">
        <ele>72.373</ele>
        <time>2019-11-10T08:18:41Z</time>
      </trkpt>
      <trkpt lat="47.34141" lon="-1.69951">
        <ele>65.962</ele>
        <time>2019-11-10T08:19:14Z</time>
      </trkpt>
      <trkpt lat="47.34332" lon="-1.6984">
        <ele>63.697</ele>
        <time>2019-11-10T08:19:47Z</time>
      </trkpt>
      <trkpt lat="47.34421" lon="-1.69783">
        <ele>71.36</ele>
        <time>2019-11-10T08:20:20Z</time>
      </trkpt>
      <trkpt lat="47.34503" lon="-1.69737">
        <ele>77.834</ele>
        <time>2019-11-10T08:20:53Z</time>
      </trkpt>
      <trkpt lat="47.34585" lon="-1.69686">
        <ele>76.73</ele>
        <time>2019-11-10T08:21:26Z</time>
      </trkpt>
      <trkpt lat="47.34674" lon="-1.69636">
        <ele>75.83</ele>
        <time>2019-11-10T08:21:59Z</time>
      </trkpt>
      <trkpt lat="47.34797" lon="-1.69637">
        <ele>75.467</ele>
        <time>2019-11-10T08:22:32Z</time>
      </trkpt>
      <trkpt lat="47.34938" lon="-1.69649">
        <ele>79.46</ele>
        <time>2019-11-10T08:23:05Z</time>
      </trkpt>
      <trkpt lat="47.35083" lon="-1.69667">
        <ele>75.666</ele>
        <time>2019-11-10T08:23:38Z</time>
      </trkpt>
      <trkpt lat="47.35235" lon="-1.69679">
        <ele>73.808</ele>
        <time>2019-11-10T08:24:11Z</time>
      </trkpt>
      <trkpt lat="47.35387" lon="-1.69695">
        <ele>77.35</ele>
        <time>2019-11-10T08:24:44Z</time>
      </trkpt>
      <trkpt lat="47.35547" lon="-1.69705">
        <ele>73.918</ele>
        <time>2019-11-10T08:25:17Z</time>
      </trkpt>
      <trkpt lat="47.35755" lon="-1.6979">
        <ele>67.24</ele>
        <time>2019-11-10T08:25:50Z</time>
      </trkpt>
      <trkpt lat="47.35943" lon="-1.69873">
        <ele>65.648</ele>
        <time>2019-11-10T08:26:23Z</time>
      </trkpt>
      <trkpt lat="47.36101" lon="-1.69943">
        <ele>66.377</ele>
        <time>2019-11-10T08:26:56Z</time>
      </trkpt>
      <trkpt lat="47.3625" lon="-1.7">
        <ele>66.984</ele>
        <time>2019-11-10T08:27:29Z</time>
      </trkpt>
      <trkpt lat="47.36415" lon="-1.7007">
        <ele>68.203</ele>
        <time>2019-11-10T08:28:02Z</time>
      </trkpt>
      <trkpt lat="47.36585" lon="-1.70155">
        <ele>67.318</ele>
        <time>2019-11-10T08:28:35Z</time>
      </trkpt>
      <trkpt lat="47.36759" lon="-1.7022">
        <ele>66.332</ele>
        <time>2019-11-10T08:29:08Z</time>
      </trkpt>
      <trkpt lat="47.36917" lon="-1.70379">
        <ele>60.927</ele>
        <time>2019-11-10T08:29:41Z</time>
      </trkpt>
      <trkpt lat="47.37095" lon="-1.70441">
        <ele>60.075</ele>
        <time>2019-11-10T08:30:14Z</time>
      </trkpt>
      <trkpt lat="47.37319" lon="-1.70506">
        <ele>54.9</ele>
        <time>2019-11-10T08:30:47Z</time>
      </trkpt>
      <trkpt lat="47.37515" lon="-1.70604">
        <ele>51.388</ele>
        <time>2019-11-10T08:31:23Z</time>
      </trkpt>
      <trkpt lat="47.37599" lon="-1.7065">
        <ele>58.817</ele>
        <time>2019-11-10T08:31:56Z</time>
      </trkpt>
      <trkpt lat="47.3768" lon="-1.70687">
        <ele>62.727</ele>
        <time>2019-11-10T08:32:29Z</time>
      </trkpt>
      <trkpt lat="47.37769" lon="-1.70732">
        <ele>64.415</ele>
        <time>2019-11-10T08:33:02Z</time>
      </trkpt>
      <trkpt lat="47.37882" lon="-1.70791">
        <ele>63.666</ele>
        <time>2019-11-10T08:33:35Z</time>
      </trkpt>
      <trkpt lat="47.38017" lon="-1.70881">
        <ele>65.189</ele>
        <time>2019-11-10T08:34:08Z</time>
      </trkpt>
      <trkpt lat="47.38164" lon="-1.70991">
        <ele>63.281</ele>
        <time>2019-11-10T08:34:41Z</time>
      </trkpt>
      <trkpt lat="47.38326" lon="-1.71109">
        <ele>61.309</ele>
        <time>2019-11-10T08:35:14Z</time>
      </trkpt>
      <trkpt lat="47.38493" lon="-1.71234">
        <ele>57.28</ele>
        <time>2019-11-10T08:35:47Z</time>
      </trkpt>
      <trkpt lat="47.38667" lon="-1.71363">
        <ele>53.447</ele>
        <time>2019-11-10T08:36:20Z</time>
      </trkpt>
      <trkpt lat="47.38831" lon="-1.71476">
        <ele>51.176</ele>
        <time>2019-11-10T08:36:53Z</time>
      </trkpt>
      <trkpt lat="47.38999" lon="-1.71579">
        <ele>53.068</ele>
        <time>2019-11-10T08:37:26Z</time>
      </trkpt>
      <trkpt lat="47.39162" lon="-1.71667">
        <ele>53.62</ele>
        <time>2019-11-10T08:37:59Z</time>
      </trkpt>
      <trkpt lat="47.39317" lon="-1.71762">
        <ele>54.801</ele>
        <time>2019-11-10T08:38:32Z</time>
      </trkpt>
      <trkpt lat="47.39461" lon="-1.71867">
        <ele>53.857</ele>
        <time>2019-11-10T08:39:05Z</time>
      </trkpt>
      <trkpt lat="47.39587" lon="-1.72019">
        <ele>54.122</ele>
        <time>2019-11-10T08:39:38Z</time>
      </trkpt>
      <trkpt lat="47.397" lon="-1.72196">
        <ele>53.773</ele>
        <time>2019-11-10T08:40:11Z</time>
      </trkpt>
      <trkpt lat="47.39825" lon="-1.72354">
        <ele>55.456</ele>
        <time>2019-11-10T08:40:44Z</time>
      </trkpt>
      <trkpt lat="47.39969" lon="-1.72496">
        <ele>52.238</ele>
        <time>2019-11-10T08:41:17Z</time>
      </trkpt>
      <trkpt lat="47.40115" lon="-1.7263">
        <ele>50.351</ele>
        <time>2019-11-10T08:41:50Z</time>
      </trkpt>
      <trkpt lat="47.40286" lon="-1.7278">
        <ele>47.814</ele>
        <time>2019-11-10T08:42:23Z</time>
      </trkpt>
      <trkpt lat="47.40482" lon="-1.7296">
        <ele>40.523</ele>
        <time>2019-11-10T08:42:56Z</time>
      </trkpt>
      <trkpt lat="47.40653" lon="-1.73123">
        <ele>38.265</ele>
        <time>2019-11-10T08:43:29Z</time>
      </trkpt>
      <trkpt lat="47.40777" lon="-1.73303">
        <ele>37.834</ele>
        <time>2019-11-10T08:44:02Z</time>
      </trkpt>
      <trkpt lat="47.40874" lon="-1.73467">
        <ele>39.392</ele>
        <time>2019-11-10T08:44:35Z</time>
      </trkpt>
      <trkpt lat="47.40993" lon="-1.73545">
        <ele>47.48</ele>
        <time>2019-11-10T08:45:08Z</time>
      </trkpt>
      <trkpt lat="47.41124" lon="-1.73627">
        <ele>45.92</ele>
        <time>2019-11-10T08:45:41Z</time>
      </trkpt>
      <trkpt lat="47.41245" lon="-1.73702">
        <ele>45.373</ele>
        <time>2019-11-10T08:46:14Z</time>
      </trkpt>
      <trkpt lat="47.41369" lon="-1.73756">
        <ele>47.932</ele>
        <time>2019-11-10T08:46:47Z</time>
      </trkpt>
      <trkpt lat="47.41509" lon="-1.73772">
        <ele>50.319</ele>
        <time>2019-11-10T08:47:20Z</time>
      </trkpt>
      <trkpt lat="47.41646" lon="-1.73783">
        <ele>49.654</ele>
        <time>2019-11-10T08:47:53Z</time>
      </trkpt>
      <trkpt lat="47.41793" lon="-1.7393">
        <ele>41.691</ele>
        <time>2019-11-10T08:48:26Z</time>
      </trkpt>
      <trkpt lat="47.41966" lon="-1.74124">
        <ele>35.345</ele>
        <time>2019-11-10T08:48:59Z</time>
      </trkpt>
      <trkpt lat="47.42178" lon="-1.74274">
        <ele>29.868</ele>
        <time>2019-11-10T08:49:32Z</time>
      </trkpt>
      <trkpt lat="47.42344" lon="-1.74386">
        <ele>30.944</ele>
        <time>2019-11-10T08:50:05Z</time>
      </trkpt>
      <trkpt lat="47.42472" lon="-1.74469">
        <ele>34.38</ele>
        <time>2019-11-10T08:50:38Z</time>
      </trkpt>
      <trkpt lat="47.42609" lon="-1.74544">
        <ele>34.582</ele>
        <time>2019-11-10T08:51:14Z</time>
      </trkpt>
      <trkpt lat="47.42739" lon="-1.74577">
        <ele>36.22</ele>
        <time>2019-11-10T08:51:47Z</time>
      </trkpt>
      <trkpt lat="47.4287" lon="-1.74643">
        <ele>38.683</ele>
        <time>2019-11-10T08:52:20Z</time>
      </trkpt>
      <trkpt lat="47.42991" lon="-1.74749">
        <ele>37.151</ele>
        <time>2019-11-10T08:52:53Z</time>
      </trkpt>
      <trkpt lat="47.43101" lon="-1.7488">
        <ele>34.979</ele>
        <time>2019-11-10T08:53:26Z</time>
      </trkpt>
      <trkpt lat="47.43215" lon="-1.75023">
        <ele>36.278</ele>
        <time>2019-11-10T08:53:59Z</time>
      </trkpt>
      <trkpt lat="47.43339" lon="-1.75216">
        <ele>32.896</ele>
        <time>2019-11-10T08:54:32Z</time>
      </trkpt>
      <trkpt lat="47.43469" lon="-1.75381">
        <ele>33.831</ele>
        <time>2019-11-10T08:55:05Z</time>
      </trkpt>
      <trkpt lat="47.43582" lon="-1.75523">
        <ele>40.027</ele>
        <time>2019-11-10T08:55:38Z</time>
      </trkpt>
      <trkpt lat="47.43707" lon="-1.75703">
        <ele>33.03</ele>
        <time>2019-11-10T08:56:11Z</time>
      </trkpt>
      <trkpt lat="47.43831" lon="-1.7588">
        <ele>29.372</ele>
        <time>2019-11-10T08:56:44Z</time>
      </trkpt>
      <trkpt lat="47.43962" lon="-1.76014">
        <ele>32.243</ele>
        <time>2019-11-10T08:57:17Z</time>
      </trkpt>
      <trkpt lat="47.44105" lon="-1.76158">
        <ele>35.827</ele>
        <time>2019-11-10T08:57:50Z</time>
      </trkpt>
      <trkpt lat="47.44236" lon="-1.76288">
        <ele>34.065</ele>
        <time>2019-11-10T08:58:23Z</time>
      </trkpt>
      <trkpt lat="47.44369" lon="-1.76422">
        <ele>30.084</ele>
        <time>2019-11-10T08:58:56Z</time>
      </trkpt>
      <trkpt lat="47.4451" lon="-1.76563">
        <ele>25.757</ele>
        <time>2019-11-10T08:59:29Z</time>
      </trkpt>
      <trkpt lat="47.44654" lon="-1.76642">
        <ele>24.848</ele>
        <time>2019-11-10T09:00:02Z</time>
      </trkpt>
      <trkpt lat="47.44807" lon="-1.76657">
        <ele>24.428</ele>
        <time>2019-11-10T09:00:35Z</time>
      </trkpt>
      <trkpt lat="47.44966" lon="-1.76687">
        <ele>27.042</ele>
        <time>2019-11-10T09:01:08Z</time>
      </trkpt>
      <trkpt lat="47.45111" lon="-1.76742">
        <ele>27.713</ele>
        <time>2019-11-10T09:01:41Z</time>
      </trkpt>
      <trkpt lat="47.45215" lon="-1.76803">
        <ele>33.772</ele>
        <time>2019-11-10T09:02:14Z</time>
      </trkpt>
      <trkpt lat="47.45301" lon="-1.76853">
        <ele>35.779</ele>
        <time>2019-11-10T09:02:47Z</time>
      </trkpt>
      <trkpt lat="47.4538" lon="-1.76896">
        <ele>39.866</ele>
        <time>2019-11-10T09:03:20Z</time>
      </trkpt>
      <trkpt lat="47.45474" lon="-1.76919">
        <ele>42.303</ele>
        <time>2019-11-10T09:03:53Z</time>
      </trkpt>
      <trkpt lat="47.45642" lon="-1.76951">
        <ele>36.836</ele>
        <time>2019-11-10T09:04:26Z</time>
      </trkpt>
      <trkpt lat="47.45821" lon="-1.76983">
        <ele>31.908</ele>
        <time>2019-11-10T09:04:59Z</time>
      </trkpt>
      <trkpt lat="47.45986" lon="-1.77005">
        <ele>35.601</ele>
        <time>2019-11-10T09:05:32Z</time>
      </trkpt>
      <trkpt lat="47.46145" lon="-1.77041">
        <ele>36.822</ele>
        <time>2019-11-10T09:06:05Z</time>
      </trkpt>
      <trkpt lat="47.46312" lon="-1.77046">
        <ele>37.017</ele>
        <time>2019-11-10T09:06:38Z</time>
      </trkpt>
      <trkpt lat="47.46511" lon="-1.77018">
        <ele>38.385</ele>
        <time>2019-11-10T09:07:11Z</time>
      </trkpt>
      <trkpt lat="47.46751" lon="-1.76891">
        <ele>20.665</ele>
        <time>2019-11-10T09:07:44Z</time>
      </trkpt>
      <trkpt lat="47.46964" lon="-1.76801">
        <ele>12.592</ele>
        <time>2019-11-10T09:08:17Z</time>
      </trkpt>
      <trkpt lat="47.47081" lon="-1.76701">
        <ele>22.497</ele>
        <time>2019-11-10T09:08:50Z</time>
      </trkpt>
      <trkpt lat="47.47267" lon="-1.76593">
        <ele>19.234</ele>
        <time>2019-11-10T09:09:26Z</time>
      </trkpt>
      <trkpt lat="47.4739" lon="-1.76523">
        <ele>24.833</ele>
        <time>2019-11-10T09:09:59Z</time>
      </trkpt>
      <trkpt lat="47.47417" lon="-1.76666">
        <ele>26.709</ele>
        <time>2019-11-10T09:10:32Z</time>
      </trkpt>
      <trkpt lat="47.47405" lon="-1.76743">
        <ele>22.312</ele>
        <time>2019-11-10T09:12:32.001Z</time>
      </trkpt>
      <trkpt lat="47.474" lon="-1.76737">
        <ele>23.298</ele>
        <time>2019-11-10T09:22:32.001Z</time>
      </trkpt>
      <trkpt lat="47.474" lon="-1.76737">
        <ele>23.298</ele>
        <time>2019-11-10T09:27:44.001Z</time>
      </trkpt>
      <trkpt lat="47.47479" lon="-1.76748">
        <ele>26.437</ele>
        <time>2019-11-10T09:29:41.001Z</time>
      </trkpt>
      <trkpt lat="47.4755" lon="-1.76727">
        <ele>32.112</ele>
        <time>2019-11-10T09:30:14.001Z</time>
      </trkpt>
      <trkpt lat="47.47539" lon="-1.76539">
        <ele>35.735</ele>
        <time>2019-11-10T09:30:47.001Z</time>
      </trkpt>
      <trkpt lat="47.47584" lon="-1.76474">
        <ele>41.392</ele>
        <time>2019-11-10T09:31:23.001Z</time>
      </trkpt>
      <trkpt lat="47.47707" lon="-1.765">
        <ele>46.337</ele>
        <time>2019-11-10T09:31:56.001Z</time>
      </trkpt>
      <trkpt lat="47.47842" lon="-1.76518">
        <ele>41.356</ele>
        <time>2019-11-10T09:32:29.001Z</time>
      </trkpt>
      <trkpt lat="47.4794" lon="-1.76537">
        <ele>46.81</ele>
        <time>2019-11-10T09:33:02Z</time>
      </trkpt>
      <trkpt lat="47.48021" lon="-1.76545">
        <ele>50.23</ele>
        <time>2019-11-10T09:33:35.001Z</time>
      </trkpt>
      <trkpt lat="47.48124" lon="-1.76557">
        <ele>50.831</ele>
        <time>2019-11-10T09:34:08.001Z</time>
      </trkpt>
      <trkpt lat="47.48265" lon="-1.76569">
        <ele>42.771</ele>
        <time>2019-11-10T09:34:41.001Z</time>
      </trkpt>
      <trkpt lat="47.48386" lon="-1.76601">
        <ele>43.066</ele>
        <time>2019-11-10T09:35:14.001Z</time>
      </trkpt>
      <trkpt lat="47.48516" lon="-1.76641">
        <ele>47.319</ele>
        <time>2019-11-10T09:35:47.001Z</time>
      </trkpt>
      <trkpt lat="47.48655" lon="-1.76722">
        <ele>45.742</ele>
        <time>2019-11-10T09:36:20.001Z</time>
      </trkpt>
      <trkpt lat="47.48803" lon="-1.76828">
        <ele>36.443</ele>
        <time>2019-11-10T09:36:53.001Z</time>
      </trkpt>
      <trkpt lat="47.48908" lon="-1.7694">
        <ele>36.041</ele>
        <time>2019-11-10T09:37:26.001Z</time>
      </trkpt>
      <trkpt lat="47.49004" lon="-1.77038">
        <ele>39.712</ele>
        <time>2019-11-10T09:37:59.001Z</time>
      </trkpt>
      <trkpt lat="47.49099" lon="-1.77135">
        <ele>42.238</ele>
        <time>2019-11-10T09:38:32.001Z</time>
      </trkpt>
      <trkpt lat="47.49209" lon="-1.77224">
        <ele>40.661</ele>
        <time>2019-11-10T09:39:05.001Z</time>
      </trkpt>
      <trkpt lat="47.49335" lon="-1.7732">
        <ele>43.585</ele>
        <time>2019-11-10T09:39:38.001Z</time>
      </trkpt>
      <trkpt lat="47.49507" lon="-1.77424">
        <ele>41.14</ele>
        <time>2019-11-10T09:40:11.001Z</time>
      </trkpt>
      <trkpt lat="47.49646" lon="-1.77553">
        <ele>35.212</ele>
        <time>2019-11-10T09:40:44.001Z</time>
      </trkpt>
      <trkpt lat="47.49807" lon="-1.77702">
        <ele>33.402</ele>
        <time>2019-11-10T09:41:17.001Z</time>
      </trkpt>
      <trkpt lat="47.49962" lon="-1.77849">
        <ele>32.516</ele>
        <time>2019-11-10T09:41:50.001Z</time>
      </trkpt>
      <trkpt lat="47.50058" lon="-1.77983">
        <ele>35.474</ele>
        <time>2019-11-10T09:42:23.001Z</time>
      </trkpt>
      <trkpt lat="47.50158" lon="-1.78134">
        <ele>41.586</ele>
        <time>2019-11-10T09:42:56.001Z</time>
      </trkpt>
      <trkpt lat="47.50268" lon="-1.78286">
        <ele>39.204</ele>
        <time>2019-11-10T09:43:29.001Z</time>
      </trkpt>
      <trkpt lat="47.50394" lon="-1.78472">
        <ele>42.02</ele>
        <time>2019-11-10T09:44:02Z</time>
      </trkpt>
      <trkpt lat="47.50504" lon="-1.78642">
        <ele>50.628</ele>
        <time>2019-11-10T09:44:35.001Z</time>
      </trkpt>
      <trkpt lat="47.50598" lon="-1.78777">
        <ele>54.676</ele>
        <time>2019-11-10T09:45:08.001Z</time>
      </trkpt>
      <trkpt lat="47.50689" lon="-1.78905">
        <ele>48.406</ele>
        <time>2019-11-10T09:45:41.001Z</time>
      </trkpt>
      <trkpt lat="47.5077" lon="-1.79021">
        <ele>48.935</ele>
        <time>2019-11-10T09:46:14.001Z</time>
      </trkpt>
      <trkpt lat="47.50853" lon="-1.79151">
        <ele>51.267</ele>
        <time>2019-11-10T09:46:47.001Z</time>
      </trkpt>
      <trkpt lat="47.50933" lon="-1.79262">
        <ele>51.306</ele>
        <time>2019-11-10T09:47:20.001Z</time>
      </trkpt>
      <trkpt lat="47.51023" lon="-1.79389">
        <ele>50.357</ele>
        <time>2019-11-10T09:47:53.002Z</time>
      </trkpt>
      <trkpt lat="47.51141" lon="-1.79566">
        <ele>45.862</ele>
        <time>2019-11-10T09:48:26.001Z</time>
      </trkpt>
      <trkpt lat="47.51292" lon="-1.79784">
        <ele>36.971</ele>
        <time>2019-11-10T09:49:02Z</time>
      </trkpt>
      <trkpt lat="47.51426" lon="-1.79985">
        <ele>40.1</ele>
        <time>2019-11-10T09:49:35.001Z</time>
      </trkpt>
      <trkpt lat="47.51532" lon="-1.80137">
        <ele>44.57</ele>
        <time>2019-11-10T09:50:08.001Z</time>
      </trkpt>
      <trkpt lat="47.51643" lon="-1.80262">
        <ele>50.782</ele>
        <time>2019-11-10T09:50:41.001Z</time>
      </trkpt>
      <trkpt lat="47.51787" lon="-1.803">
        <ele>56.905</ele>
        <time>2019-11-10T09:51:14.001Z</time>
      </trkpt>
      <trkpt lat="47.51973" lon="-1.80316">
        <ele>62.295</ele>
        <time>2019-11-10T09:51:47.001Z</time>
      </trkpt>
      <trkpt lat="47.52203" lon="-1.8033">
        <ele>57.022</ele>
        <time>2019-11-10T09:52:20.001Z</time>
      </trkpt>
      <trkpt lat="47.52375" lon="-1.80347">
        <ele>45.28</ele>
        <time>2019-11-10T09:52:53.001Z</time>
      </trkpt>
      <trkpt lat="47.52481" lon="-1.80359">
        <ele>52.528</ele>
        <time>2019-11-10T09:53:26.001Z</time>
      </trkpt>
      <trkpt lat="47.52594" lon="-1.80368">
        <ele>58.206</ele>
        <time>2019-11-10T09:53:59.001Z</time>
      </trkpt>
      <trkpt lat="47.52708" lon="-1.80382">
        <ele>62.05</ele>
        <time>2019-11-10T09:54:32.001Z</time>
      </trkpt>
      <trkpt lat="47.52844" lon="-1.80387">
        <ele>50.635</ele>
        <time>2019-11-10T09:55:05.001Z</time>
      </trkpt>
      <trkpt lat="47.52989" lon="-1.80405">
        <ele>63.73</ele>
        <time>2019-11-10T09:55:38.001Z</time>
      </trkpt>
      <trkpt lat="47.53179" lon="-1.80422">
        <ele>55.9</ele>
        <time>2019-11-10T09:56:11.001Z</time>
      </trkpt>
      <trkpt lat="47.53338" lon="-1.80437">
        <ele>54.67</ele>
        <time>2019-11-10T09:56:44.001Z</time>
      </trkpt>
      <trkpt lat="47.53512" lon="-1.80453">
        <ele>46.543</ele>
        <time>2019-11-10T09:57:17.001Z</time>
      </trkpt>
      <trkpt lat="47.53679" lon="-1.80467">
        <ele>37.501</ele>
        <time>2019-11-10T09:57:50.001Z</time>
      </trkpt>
      <trkpt lat="47.53828" lon="-1.80483">
        <ele>42.616</ele>
        <time>2019-11-10T09:58:23.001Z</time>
      </trkpt>
      <trkpt lat="47.53962" lon="-1.80495">
        <ele>44.793</ele>
        <time>2019-11-10T09:58:56.001Z</time>
      </trkpt>
      <trkpt lat="47.54101" lon="-1.80511">
        <ele>53.698</ele>
        <time>2019-11-10T09:59:29.001Z</time>
      </trkpt>
      <trkpt lat="47.54247" lon="-1.80529">
        <ele>61.183</ele>
        <time>2019-11-10T10:00:02Z</time>
      </trkpt>
      <trkpt lat="47.54394" lon="-1.80541">
        <ele>63.442</ele>
        <time>2019-11-10T10:00:35.001Z</time>
      </trkpt>
      <trkpt lat="47.54526" lon="-1.80555">
        <ele>59.922</ele>
        <time>2019-11-10T10:01:08.001Z</time>
      </trkpt>
      <trkpt lat="47.5466" lon="-1.8056">
        <ele>53.846</ele>
        <time>2019-11-10T10:01:41.001Z</time>
      </trkpt>
      <trkpt lat="47.54822" lon="-1.80576">
        <ele>52.309</ele>
        <time>2019-11-10T10:02:14.001Z</time>
      </trkpt>
      <trkpt lat="47.55015" lon="-1.80594">
        <ele>44.599</ele>
        <time>2019-11-10T10:02:47.001Z</time>
      </trkpt>
      <trkpt lat="47.55214" lon="-1.8061">
        <ele>39.236</ele>
        <time>2019-11-10T10:03:20.001Z</time>
      </trkpt>
      <trkpt lat="47.55421" lon="-1.80633">
        <ele>33.773</ele>
        <time>2019-11-10T10:03:53.001Z</time>
      </trkpt>
      <trkpt lat="47.55548" lon="-1.80649">
        <ele>39.592</ele>
        <time>2019-11-10T10:04:26.001Z</time>
      </trkpt>
      <trkpt lat="47.55689" lon="-1.80661">
        <ele>39.491</ele>
        <time>2019-11-10T10:04:59.001Z</time>
      </trkpt>
      <trkpt lat="47.55824" lon="-1.80674">
        <ele>38.979</ele>
        <time>2019-11-10T10:05:32.001Z</time>
      </trkpt>
      <trkpt lat="47.55938" lon="-1.80719">
        <ele>46.124</ele>
        <time>2019-11-10T10:06:05.001Z</time>
      </trkpt>
      <trkpt lat="47.56047" lon="-1.80758">
        <ele>48.919</ele>
        <time>2019-11-10T10:06:38.001Z</time>
      </trkpt>
      <trkpt lat="47.56175" lon="-1.80808">
        <ele>50.823</ele>
        <time>2019-11-10T10:07:11.001Z</time>
      </trkpt>
      <trkpt lat="47.56353" lon="-1.80878">
        <ele>51.234</ele>
        <time>2019-11-10T10:07:44.001Z</time>
      </trkpt>
      <trkpt lat="47.56518" lon="-1.80944">
        <ele>47.003</ele>
        <time>2019-11-10T10:08:17.001Z</time>
      </trkpt>
      <trkpt lat="47.56669" lon="-1.80997">
        <ele>48.918</ele>
        <time>2019-11-10T10:08:50.001Z</time>
      </trkpt>
      <trkpt lat="47.56892" lon="-1.81057">
        <ele>44.569</ele>
        <time>2019-11-10T10:09:26.001Z</time>
      </trkpt>
      <trkpt lat="47.57062" lon="-1.81104">
        <ele>42.229</ele>
        <time>2019-11-10T10:09:59.001Z</time>
      </trkpt>
      <trkpt lat="47.57146" lon="-1.8113">
        <ele>39.55</ele>
        <time>2019-11-10T10:10:32.001Z</time>
      </trkpt>
      <trkpt lat="47.57261" lon="-1.81151">
        <ele>45.523</ele>
        <time>2019-11-10T10:11:05.001Z</time>
      </trkpt>
      <trkpt lat="47.57391" lon="-1.81165">
        <ele>45.756</ele>
        <time>2019-11-10T10:11:38.001Z</time>
      </trkpt>
      <trkpt lat="47.57537" lon="-1.81179">
        <ele>46.671</ele>
        <time>2019-11-10T10:12:11.001Z</time>
      </trkpt>
      <trkpt lat="47.57694" lon="-1.81196">
        <ele>46.445</ele>
        <time>2019-11-10T10:12:44.001Z</time>
      </trkpt>
      <trkpt lat="47.57813" lon="-1.8121">
        <ele>50.413</ele>
        <time>2019-11-10T10:13:17.001Z</time>
      </trkpt>
      <trkpt lat="47.57923" lon="-1.8122">
        <ele>58.294</ele>
        <time>2019-11-10T10:13:50.001Z</time>
      </trkpt>
      <trkpt lat="47.58028" lon="-1.8123">
        <ele>62.486</ele>
        <time>2019-11-10T10:14:23.001Z</time>
      </trkpt>
      <trkpt lat="47.58137" lon="-1.81244">
        <ele>59.581</ele>
        <time>2019-11-10T10:14:56.001Z</time>
      </trkpt>
      <trkpt lat="47.58249" lon="-1.81256">
        <ele>55.839</ele>
        <time>2019-11-10T10:15:29.001Z</time>
      </trkpt>
      <trkpt lat="47.58359" lon="-1.8127">
        <ele>57.561</ele>
        <time>2019-11-10T10:16:02Z</time>
      </trkpt>
      <trkpt lat="47.58502" lon="-1.81248">
        <ele>59.098</ele>
        <time>2019-11-10T10:16:35.001Z</time>
      </trkpt>
      <trkpt lat="47.58667" lon="-1.8122">
        <ele>54.191</ele>
        <time>2019-11-10T10:17:08.001Z</time>
      </trkpt>
      <trkpt lat="47.58836" lon="-1.81192">
        <ele>60.159</ele>
        <time>2019-11-10T10:17:41.001Z</time>
      </trkpt>
      <trkpt lat="47.59028" lon="-1.8116">
        <ele>54.44</ele>
        <time>2019-11-10T10:18:14.001Z</time>
      </trkpt>
      <trkpt lat="47.59223" lon="-1.81127">
        <ele>37.225</ele>
        <time>2019-11-10T10:18:47.001Z</time>
      </trkpt>
      <trkpt lat="47.59399" lon="-1.81096">
        <ele>38.9</ele>
        <time>2019-11-10T10:19:20.001Z</time>
      </trkpt>
      <trkpt lat="47.59528" lon="-1.81103">
        <ele>44.44</ele>
        <time>2019-11-10T10:19:53.001Z</time>
      </trkpt>
      <trkpt lat="47.59641" lon="-1.81128">
        <ele>44.858</ele>
        <time>2019-11-10T10:20:26.001Z</time>
      </trkpt>
      <trkpt lat="47.59747" lon="-1.81148">
        <ele>48.515</ele>
        <time>2019-11-10T10:20:59.001Z</time>
      </trkpt>
      <trkpt lat="47.59847" lon="-1.81173">
        <ele>50.087</ele>
        <time>2019-11-10T10:21:32.001Z</time>
      </trkpt>
      <trkpt lat="47.5994" lon="-1.81193">
        <ele>51.989</ele>
        <time>2019-11-10T10:22:05.001Z</time>
      </trkpt>
      <trkpt lat="47.60035" lon="-1.81227">
        <ele>49.603</ele>
        <time>2019-11-10T10:22:38.001Z</time>
      </trkpt>
      <trkpt lat="47.60162" lon="-1.81287">
        <ele>45.526</ele>
        <time>2019-11-10T10:23:11.001Z</time>
      </trkpt>
      <trkpt lat="47.60364" lon="-1.81379">
        <ele>42.897</ele>
        <time>2019-11-10T10:23:44.001Z</time>
      </trkpt>
      <trkpt lat="47.60583" lon="-1.81485">
        <ele>25.473</ele>
        <time>2019-11-10T10:24:17.001Z</time>
      </trkpt>
      <trkpt lat="47.60676" lon="-1.81532">
        <ele>23.188</ele>
        <time>2019-11-10T10:28:47.001Z</time>
      </trkpt>
      <trkpt lat="47.60831" lon="-1.8162">
        <ele>26.549</ele>
        <time>2019-11-10T10:29:20.001Z</time>
      </trkpt>
      <trkpt lat="47.60997" lon="-1.81741">
        <ele>21.477</ele>
        <time>2019-11-10T10:29:53.001Z</time>
      </trkpt>
      <trkpt lat="47.61183" lon="-1.8188">
        <ele>11.79</ele>
        <time>2019-11-10T10:30:26.001Z</time>
      </trkpt>
      <trkpt lat="47.61366" lon="-1.82012">
        <ele>9.385</ele>
        <time>2019-11-10T10:30:59.001Z</time>
      </trkpt>
      <trkpt lat="47.61509" lon="-1.82116">
        <ele>5.592</ele>
        <time>2019-11-10T10:31:32.001Z</time>
      </trkpt>
      <trkpt lat="47.61624" lon="-1.82206">
        <ele>12.807</ele>
        <time>2019-11-10T10:32:05.001Z</time>
      </trkpt>
      <trkpt lat="47.61708" lon="-1.82355">
        <ele>19.384</ele>
        <time>2019-11-10T10:32:38.001Z</time>
      </trkpt>
      <trkpt lat="47.61826" lon="-1.82522">
        <ele>10.289</ele>
        <time>2019-11-10T10:33:11.001Z</time>
      </trkpt>
      <trkpt lat="47.61967" lon="-1.8263">
        <ele>3.455</ele>
        <time>2019-11-10T10:33:47.001Z</time>
      </trkpt>
      <trkpt lat="47.62083" lon="-1.82713">
        <ele>4.446</ele>
        <time>2019-11-10T10:34:20.001Z</time>
      </trkpt>
      <trkpt lat="47.62199" lon="-1.82814">
        <ele>10.343</ele>
        <time>2019-11-10T10:34:53.001Z</time>
      </trkpt>
      <trkpt lat="47.62341" lon="-1.8296">
        <ele>8.449</ele>
        <time>2019-11-10T10:35:26.001Z</time>
      </trkpt>
      <trkpt lat="47.62559" lon="-1.83132">
        <ele>9</ele>
        <time>2019-11-10T10:35:59.001Z</time>
      </trkpt>
      <trkpt lat="47.62684" lon="-1.83232">
        <ele>8.3</ele>
        <time>2019-11-10T10:36:32.001Z</time>
      </trkpt>
      <trkpt lat="47.62805" lon="-1.83323">
        <ele>11.8</ele>
        <time>2019-11-10T10:37:05.001Z</time>
      </trkpt>
      <trkpt lat="47.62873" lon="-1.83391">
        <ele>10.31</ele>
        <time>2019-11-10T10:37:38.001Z</time>
      </trkpt>
      <trkpt lat="47.62967" lon="-1.8344">
        <ele>12.04</ele>
        <time>2019-11-10T10:38:11.001Z</time>
      </trkpt>
      <trkpt lat="47.63053" lon="-1.8349">
        <ele>11.551</ele>
        <time>2019-11-10T10:38:44.001Z</time>
      </trkpt>
      <trkpt lat="47.63106" lon="-1.83598">
        <ele>21.274</ele>
        <time>2019-11-10T10:39:17.001Z</time>
      </trkpt>
      <trkpt lat="47.63167" lon="-1.83749">
        <ele>24.833</ele>
        <time>2019-11-10T10:39:50.001Z</time>
      </trkpt>
      <trkpt lat="47.63241" lon="-1.83884">
        <ele>22.676</ele>
        <time>2019-11-10T10:40:23.001Z</time>
      </trkpt>
      <trkpt lat="47.63309" lon="-1.83979">
        <ele>23.655</ele>
        <time>2019-11-10T10:40:56.001Z</time>
      </trkpt>
      <trkpt lat="47.63387" lon="-1.84073">
        <ele>27.185</ele>
        <time>2019-11-10T10:41:29.001Z</time>
      </trkpt>
      <trkpt lat="47.63466" lon="-1.84176">
        <ele>25.597</ele>
        <time>2019-11-10T10:42:02Z</time>
      </trkpt>
      <trkpt lat="47.63581" lon="-1.84403">
        <ele>28.141</ele>
        <time>2019-11-10T10:42:35.001Z</time>
      </trkpt>
      <trkpt lat="47.63696" lon="-1.84679">
        <ele>22.418</ele>
        <time>2019-11-10T10:43:08.001Z</time>
      </trkpt>
      <trkpt lat="47.63737" lon="-1.84775">
        <ele>23.485</ele>
        <time>2019-11-10T10:43:41.001Z</time>
      </trkpt>
      <trkpt lat="47.63763" lon="-1.8489">
        <ele>27.631</ele>
        <time>2019-11-10T10:44:14.001Z</time>
      </trkpt>
      <trkpt lat="47.63789" lon="-1.8502">
        <ele>32.222</ele>
        <time>2019-11-10T10:44:47.001Z</time>
      </trkpt>
      <trkpt lat="47.63861" lon="-1.85107">
        <ele>36.571</ele>
        <time>2019-11-10T10:45:20.001Z</time>
      </trkpt>
      <trkpt lat="47.6398" lon="-1.85158">
        <ele>28.725</ele>
        <time>2019-11-10T10:45:53.001Z</time>
      </trkpt>
      <trkpt lat="47.64102" lon="-1.85214">
        <ele>35.085</ele>
        <time>2019-11-10T10:46:26.001Z</time>
      </trkpt>
      <trkpt lat="47.64226" lon="-1.85273">
        <ele>35.759</ele>
        <time>2019-11-10T10:46:59.001Z</time>
      </trkpt>
      <trkpt lat="47.64351" lon="-1.85326">
        <ele>39.258</ele>
        <time>2019-11-10T10:47:32.001Z</time>
      </trkpt>
      <trkpt lat="47.64474" lon="-1.85382">
        <ele>36.486</ele>
        <time>2019-11-10T10:48:05.001Z</time>
      </trkpt>
      <trkpt lat="47.64607" lon="-1.85444">
        <ele>36.848</ele>
        <time>2019-11-10T10:48:38.001Z</time>
      </trkpt>
      <trkpt lat="47.64753" lon="-1.85513">
        <ele>28.078</ele>
        <time>2019-11-10T10:49:11.001Z</time>
      </trkpt>
      <trkpt lat="47.64875" lon="-1.85569">
        <ele>32.678</ele>
        <time>2019-11-10T10:49:44.001Z</time>
      </trkpt>
      <trkpt lat="47.65" lon="-1.85626">
        <ele>35.407</ele>
        <time>2019-11-10T10:50:17.001Z</time>
      </trkpt>
      <trkpt lat="47.6512" lon="-1.8568">
        <ele>34.563</ele>
        <time>2019-11-10T10:50:50.001Z</time>
      </trkpt>
      <trkpt lat="47.65239" lon="-1.85736">
        <ele>37.058</ele>
        <time>2019-11-10T10:51:23.001Z</time>
      </trkpt>
      <trkpt lat="47.65353" lon="-1.85791">
        <ele>36.602</ele>
        <time>2019-11-10T10:51:56.001Z</time>
      </trkpt>
      <trkpt lat="47.65478" lon="-1.85848">
        <ele>41.075</ele>
        <time>2019-11-10T10:52:29.001Z</time>
      </trkpt>
      <trkpt lat="47.6559" lon="-1.85898">
        <ele>38.146</ele>
        <time>2019-11-10T10:53:02Z</time>
      </trkpt>
      <trkpt lat="47.65712" lon="-1.85954">
        <ele>37.781</ele>
        <time>2019-11-10T10:53:35.001Z</time>
      </trkpt>
      <trkpt lat="47.65832" lon="-1.86008">
        <ele>40.551</ele>
        <time>2019-11-10T10:54:11.001Z</time>
      </trkpt>
      <trkpt lat="47.65948" lon="-1.86063">
        <ele>43.142</ele>
        <time>2019-11-10T10:54:44.001Z</time>
      </trkpt>
      <trkpt lat="47.66061" lon="-1.86112">
        <ele>43.192</ele>
        <time>2019-11-10T10:55:17.001Z</time>
      </trkpt>
      <trkpt lat="47.66178" lon="-1.86166">
        <ele>42.187</ele>
        <time>2019-11-10T10:55:50.001Z</time>
      </trkpt>
      <trkpt lat="47.66301" lon="-1.86225">
        <ele>46.367</ele>
        <time>2019-11-10T10:56:23.001Z</time>
      </trkpt>
      <trkpt lat="47.66468" lon="-1.86301">
        <ele>51.293</ele>
        <time>2019-11-10T10:56:56.001Z</time>
      </trkpt>
      <trkpt lat="47.66664" lon="-1.86392">
        <ele>42.329</ele>
        <time>2019-11-10T10:57:29.001Z</time>
      </trkpt>
      <trkpt lat="47.66852" lon="-1.86478">
        <ele>35.187</ele>
        <time>2019-11-10T10:58:02Z</time>
      </trkpt>
      <trkpt lat="47.6708" lon="-1.86518">
        <ele>31.355</ele>
        <time>2019-11-10T10:58:35.001Z</time>
      </trkpt>
      <trkpt lat="47.67282" lon="-1.86475">
        <ele>26.157</ele>
        <time>2019-11-10T10:59:08.001Z</time>
      </trkpt>
      <trkpt lat="47.67506" lon="-1.86527">
        <ele>19.508</ele>
        <time>2019-11-10T10:59:41.001Z</time>
      </trkpt>
      <trkpt lat="47.67721" lon="-1.86624">
        <ele>17.809</ele>
        <time>2019-11-10T11:00:14.001Z</time>
      </trkpt>
      <trkpt lat="47.67899" lon="-1.8671">
        <ele>18.999</ele>
        <time>2019-11-10T11:00:47.001Z</time>
      </trkpt>
      <trkpt lat="47.68111" lon="-1.86751">
        <ele>13.824</ele>
        <time>2019-11-10T11:01:20.001Z</time>
      </trkpt>
      <trkpt lat="47.68321" lon="-1.86793">
        <ele>9.45</ele>
        <time>2019-11-10T11:01:53.001Z</time>
      </trkpt>
      <trkpt lat="47.68545" lon="-1.86838">
        <ele>4.745</ele>
        <time>2019-11-10T11:02:26.001Z</time>
      </trkpt>
      <trkpt lat="47.68764" lon="-1.86882">
        <ele>3.323</ele>
        <time>2019-11-10T11:02:59.001Z</time>
      </trkpt>
      <trkpt lat="47.68959" lon="-1.86932">
        <ele>0.24</ele>
        <time>2019-11-10T11:03:32.001Z</time>
      </trkpt>
      <trkpt lat="47.6915" lon="-1.86973">
        <ele>2.614</ele>
        <time>2019-11-10T11:04:05.001Z</time>
      </trkpt>
      <trkpt lat="47.69247" lon="-1.8687">
        <ele>6.793</ele>
        <time>2019-11-10T11:04:38.001Z</time>
      </trkpt>
      <trkpt lat="47.6935" lon="-1.8682">
        <ele>11.287</ele>
        <time>2019-11-10T11:05:11.001Z</time>
      </trkpt>
      <trkpt lat="47.69466" lon="-1.86753">
        <ele>8.986</ele>
        <time>2019-11-10T11:05:44.001Z</time>
      </trkpt>
      <trkpt lat="47.69565" lon="-1.86718">
        <ele>14.544</ele>
        <time>2019-11-10T11:06:17.001Z</time>
      </trkpt>
      <trkpt lat="47.69641" lon="-1.8676">
        <ele>17.676</ele>
        <time>2019-11-10T11:06:50.001Z</time>
      </trkpt>
      <trkpt lat="47.69729" lon="-1.8683">
        <ele>26.916</ele>
        <time>2019-11-10T11:07:23.001Z</time>
      </trkpt>
      <trkpt lat="47.69888" lon="-1.86904">
        <ele>21.903</ele>
        <time>2019-11-10T11:07:56.001Z</time>
      </trkpt>
      <trkpt lat="47.70069" lon="-1.86766">
        <ele>3.649</ele>
        <time>2019-11-10T11:08:29.001Z</time>
      </trkpt>
      <trkpt lat="47.70177" lon="-1.86835">
        <ele>0.402</ele>
        <time>2019-11-10T11:09:02Z</time>
      </trkpt>
      <trkpt lat="47.70283" lon="-1.86636">
        <ele>4.7</ele>
        <time>2019-11-10T11:09:35.001Z</time>
      </trkpt>
      <trkpt lat="47.70431" lon="-1.86619">
        <ele>0.734</ele>
        <time>2019-11-10T11:10:08.001Z</time>
      </trkpt>
      <trkpt lat="47.70563" lon="-1.86605">
        <ele>4.183</ele>
        <time>2019-11-10T11:10:41.001Z</time>
      </trkpt>
      <trkpt lat="47.70678" lon="-1.86508">
        <ele>5.055</ele>
        <time>2019-11-10T11:11:14.001Z</time>
      </trkpt>
      <trkpt lat="47.70763" lon="-1.86366">
        <ele>3.355</ele>
        <time>2019-11-10T11:11:47.001Z</time>
      </trkpt>
      <trkpt lat="47.70809" lon="-1.86182">
        <ele>7.6</ele>
        <time>2019-11-10T11:12:20.001Z</time>
      </trkpt>
      <trkpt lat="47.70839" lon="-1.85994">
        <ele>8.1</ele>
        <time>2019-11-10T11:12:53.001Z</time>
      </trkpt>
      <trkpt lat="47.70859" lon="-1.85827">
        <ele>1.421</ele>
        <time>2019-11-10T11:13:26.001Z</time>
      </trkpt>
      <trkpt lat="47.70871" lon="-1.85637">
        <ele>7.178</ele>
        <time>2019-11-10T11:14:02Z</time>
      </trkpt>
      <trkpt lat="47.70882" lon="-1.85456">
        <ele>1.6</ele>
        <time>2019-11-10T11:14:35.001Z</time>
      </trkpt>
      <trkpt lat="47.70878" lon="-1.85403">
        <ele>2.358</ele>
        <time>2019-11-10T11:18:17.001Z</time>
      </trkpt>
      <trkpt lat="47.70833" lon="-1.85235">
        <ele>0.445</ele>
        <time>2019-11-10T11:18:50.001Z</time>
      </trkpt>
      <trkpt lat="47.70804" lon="-1.85036">
        <ele>4</ele>
        <time>2019-11-10T11:19:23.001Z</time>
      </trkpt>
      <trkpt lat="47.70756" lon="-1.8481">
        <ele>0.087</ele>
        <time>2019-11-10T11:19:56.001Z</time>
      </trkpt>
      <trkpt lat="47.70703" lon="-1.84597">
        <ele>0.749</ele>
        <time>2019-11-10T11:20:29.001Z</time>
      </trkpt>
      <trkpt lat="47.70656" lon="-1.84386">
        <ele>1.731</ele>
        <time>2019-11-10T11:21:02Z</time>
      </trkpt>
      <trkpt lat="47.70601" lon="-1.84163">
        <ele>0.825</ele>
        <time>2019-11-10T11:21:35.001Z</time>
      </trkpt>
      <trkpt lat="47.70615" lon="-1.83955">
        <ele>4.1</ele>
        <time>2019-11-10T11:22:08.001Z</time>
      </trkpt>
      <trkpt lat="47.7073" lon="-1.83833">
        <ele>0.845</ele>
        <time>2019-11-10T11:22:41.001Z</time>
      </trkpt>
      <trkpt lat="47.70868" lon="-1.83788">
        <ele>2.865</ele>
        <time>2019-11-10T11:23:14.001Z</time>
      </trkpt>
      <trkpt lat="47.71006" lon="-1.83727">
        <ele>3.628</ele>
        <time>2019-11-10T11:23:47.001Z</time>
      </trkpt>
      <trkpt lat="47.71155" lon="-1.83687">
        <ele>2.881</ele>
        <time>2019-11-10T11:24:20.001Z</time>
      </trkpt>
      <trkpt lat="47.713" lon="-1.83732">
        <ele>3.104</ele>
        <time>2019-11-10T11:24:53.001Z</time>
      </trkpt>
      <trkpt lat="47.71445" lon="-1.83784">
        <ele>6.307</ele>
        <time>2019-11-10T11:25:26.001Z</time>
      </trkpt>
      <trkpt lat="47.71592" lon="-1.83776">
        <ele>4.155</ele>
        <time>2019-11-10T11:25:59.001Z</time>
      </trkpt>
      <trkpt lat="47.71714" lon="-1.8366">
        <ele>2.203</ele>
        <time>2019-11-10T11:26:32.001Z</time>
      </trkpt>
      <trkpt lat="47.71839" lon="-1.83542">
        <ele>2.123</ele>
        <time>2019-11-10T11:27:05.001Z</time>
      </trkpt>
      <trkpt lat="47.71975" lon="-1.83505">
        <ele>6.748</ele>
        <time>2019-11-10T11:27:38.001Z</time>
      </trkpt>
      <trkpt lat="47.72104" lon="-1.83553">
        <ele>7.008</ele>
        <time>2019-11-10T11:28:11.001Z</time>
      </trkpt>
      <trkpt lat="47.72204" lon="-1.83703">
        <ele>6.69</ele>
        <time>2019-11-10T11:28:44.001Z</time>
      </trkpt>
      <trkpt lat="47.72314" lon="-1.83829">
        <ele>4.752</ele>
        <time>2019-11-10T11:29:17.001Z</time>
      </trkpt>
      <trkpt lat="47.72472" lon="-1.83799">
        <ele>5.582</ele>
        <time>2019-11-10T11:29:50.001Z</time>
      </trkpt>
      <trkpt lat="47.72616" lon="-1.83788">
        <ele>3.292</ele>
        <time>2019-11-10T11:30:23.001Z</time>
      </trkpt>
      <trkpt lat="47.72729" lon="-1.83899">
        <ele>6.724</ele>
        <time>2019-11-10T11:30:56.001Z</time>
      </trkpt>
      <trkpt lat="47.72862" lon="-1.83914">
        <ele>8.982</ele>
        <time>2019-11-10T11:31:29.001Z</time>
      </trkpt>
      <trkpt lat="47.7299" lon="-1.8382">
        <ele>5.606</ele>
        <time>2019-11-10T11:32:02Z</time>
      </trkpt>
      <trkpt lat="47.7312" lon="-1.83793">
        <ele>3.973</ele>
        <time>2019-11-10T11:32:35.001Z</time>
      </trkpt>
      <trkpt lat="47.73193" lon="-1.83958">
        <ele>5.106</ele>
        <time>2019-11-10T11:33:08.001Z</time>
      </trkpt>
      <trkpt lat="47.73233" lon="-1.84159">
        <ele>5.903</ele>
        <time>2019-11-10T11:33:41.001Z</time>
      </trkpt>
      <trkpt lat="47.73298" lon="-1.84346">
        <ele>6.599</ele>
        <time>2019-11-10T11:34:14.001Z</time>
      </trkpt>
      <trkpt lat="47.73417" lon="-1.84465">
        <ele>6.117</ele>
        <time>2019-11-10T11:34:47.001Z</time>
      </trkpt>
      <trkpt lat="47.73562" lon="-1.845">
        <ele>6.955</ele>
        <time>2019-11-10T11:35:20.001Z</time>
      </trkpt>
      <trkpt lat="47.73705" lon="-1.84468">
        <ele>7.426</ele>
        <time>2019-11-10T11:35:53.001Z</time>
      </trkpt>
      <trkpt lat="47.73846" lon="-1.84412">
        <ele>4.149</ele>
        <time>2019-11-10T11:36:26.001Z</time>
      </trkpt>
      <trkpt lat="47.73981" lon="-1.84349">
        <ele>7.123</ele>
        <time>2019-11-10T11:36:59.001Z</time>
      </trkpt>
      <trkpt lat="47.74128" lon="-1.84251">
        <ele>3.111</ele>
        <time>2019-11-10T11:37:35.001Z</time>
      </trkpt>
      <trkpt lat="47.74227" lon="-1.841">
        <ele>1.971</ele>
        <time>2019-11-10T11:38:08.001Z</time>
      </trkpt>
      <trkpt lat="47.74319" lon="-1.83937">
        <ele>1.336</ele>
        <time>2019-11-10T11:38:41.001Z</time>
      </trkpt>
      <trkpt lat="47.74422" lon="-1.83783">
        <ele>1.521</ele>
        <time>2019-11-10T11:39:14.001Z</time>
      </trkpt>
      <trkpt lat="47.74537" lon="-1.83668">
        <ele>3.665</ele>
        <time>2019-11-10T11:39:47.001Z</time>
      </trkpt>
      <trkpt lat="47.74634" lon="-1.83501">
        <ele>0.476</ele>
        <time>2019-11-10T11:40:20.001Z</time>
      </trkpt>
      <trkpt lat="47.74709" lon="-1.83332">
        <ele>3.839</ele>
        <time>2019-11-10T11:40:53.001Z</time>
      </trkpt>
      <trkpt lat="47.74793" lon="-1.83139">
        <ele>6.3</ele>
        <time>2019-11-10T11:41:26.001Z</time>
      </trkpt>
      <trkpt lat="47.74861" lon="-1.82929">
        <ele>5.5</ele>
        <time>2019-11-10T11:41:59.001Z</time>
      </trkpt>
      <trkpt lat="47.74972" lon="-1.82786">
        <ele>2.886</ele>
        <time>2019-11-10T11:42:32.001Z</time>
      </trkpt>
      <trkpt lat="47.75099" lon="-1.82676">
        <ele>4.26</ele>
        <time>2019-11-10T11:43:05.001Z</time>
      </trkpt>
      <trkpt lat="47.75226" lon="-1.82579">
        <ele>6.104</ele>
        <time>2019-11-10T11:43:38.001Z</time>
      </trkpt>
      <trkpt lat="47.75359" lon="-1.82521">
        <ele>4.807</ele>
        <time>2019-11-10T11:44:11.001Z</time>
      </trkpt>
      <trkpt lat="47.7545" lon="-1.82505">
        <ele>11.993</ele>
        <time>2019-11-10T11:44:44.001Z</time>
      </trkpt>
      <trkpt lat="47.75513" lon="-1.82487">
        <ele>16.291</ele>
        <time>2019-11-10T11:45:17.001Z</time>
      </trkpt>
      <trkpt lat="47.75585" lon="-1.82469">
        <ele>19.991</ele>
        <time>2019-11-10T11:45:50.001Z</time>
      </trkpt>
      <trkpt lat="47.75666" lon="-1.82446">
        <ele>23.69</ele>
        <time>2019-11-10T11:46:23.001Z</time>
      </trkpt>
      <trkpt lat="47.75786" lon="-1.82418">
        <ele>20.924</ele>
        <time>2019-11-10T11:46:56.001Z</time>
      </trkpt>
      <trkpt lat="47.75974" lon="-1.82371">
        <ele>16.149</ele>
        <time>2019-11-10T11:47:29.001Z</time>
      </trkpt>
      <trkpt lat="47.76073" lon="-1.81997">
        <ele>0.769</ele>
        <time>2019-11-10T11:48:02Z</time>
      </trkpt>
      <trkpt lat="47.76256" lon="-1.81844">
        <ele>5.5</ele>
        <time>2019-11-10T11:48:35.001Z</time>
      </trkpt>
      <trkpt lat="47.76391" lon="-1.81946">
        <ele>5.133</ele>
        <time>2019-11-10T11:49:08.001Z</time>
      </trkpt>
      <trkpt lat="47.76486" lon="-1.82127">
        <ele>6.412</ele>
        <time>2019-11-10T11:49:41.001Z</time>
      </trkpt>
      <trkpt lat="47.76573" lon="-1.82295">
        <ele>12.384</ele>
        <time>2019-11-10T11:50:14.001Z</time>
      </trkpt>
      <trkpt lat="47.76645" lon="-1.8241">
        <ele>8.699</ele>
        <time>2019-11-10T11:50:50.001Z</time>
      </trkpt>
      <trkpt lat="47.76664" lon="-1.82606">
        <ele>4.573</ele>
        <time>2019-11-10T11:51:23.001Z</time>
      </trkpt>
      <trkpt lat="47.76606" lon="-1.82817">
        <ele>2.462</ele>
        <time>2019-11-10T11:51:56.001Z</time>
      </trkpt>
      <trkpt lat="47.76537" lon="-1.83006">
        <ele>5.562</ele>
        <time>2019-11-10T11:52:29.001Z</time>
      </trkpt>
      <trkpt lat="47.76489" lon="-1.83181">
        <ele>6.987</ele>
        <time>2019-11-10T11:53:02Z</time>
      </trkpt>
      <trkpt lat="47.76466" lon="-1.83313">
        <ele>4.295</ele>
        <time>2019-11-10T11:53:35.001Z</time>
      </trkpt>
      <trkpt lat="47.76439" lon="-1.83471">
        <ele>4.841</ele>
        <time>2019-11-10T11:54:08.001Z</time>
      </trkpt>
      <trkpt lat="47.76418" lon="-1.83579">
        <ele>1.567</ele>
        <time>2019-11-10T11:54:41.001Z</time>
      </trkpt>
      <trkpt lat="47.76396" lon="-1.83739">
        <ele>0.611</ele>
        <time>2019-11-10T11:55:14.001Z</time>
      </trkpt>
      <trkpt lat="47.76343" lon="-1.83914">
        <ele>23.1</ele>
        <time>2019-11-10T11:55:47.001Z</time>
      </trkpt>
      <trkpt lat="47.76305" lon="-1.84099">
        <ele>33.1</ele>
        <time>2019-11-10T11:56:20.001Z</time>
      </trkpt>
      <trkpt lat="47.76323" lon="-1.84273">
        <ele>35</ele>
        <time>2019-11-10T11:56:53.001Z</time>
      </trkpt>
      <trkpt lat="47.76361" lon="-1.84412">
        <ele>0.527</ele>
        <time>2019-11-10T11:57:26.001Z</time>
      </trkpt>
      <trkpt lat="47.7639" lon="-1.84618">
        <ele>35.7</ele>
        <time>2019-11-10T11:58:02Z</time>
      </trkpt>
      <trkpt lat="47.76464" lon="-1.84739">
        <ele>7.756</ele>
        <time>2019-11-10T11:58:35.001Z</time>
      </trkpt>
      <trkpt lat="47.76591" lon="-1.84795">
        <ele>7.185</ele>
        <time>2019-11-10T11:59:08.001Z</time>
      </trkpt>
      <trkpt lat="47.76715" lon="-1.84782">
        <ele>16.073</ele>
        <time>2019-11-10T11:59:41.001Z</time>
      </trkpt>
      <trkpt lat="47.76839" lon="-1.84722">
        <ele>8.454</ele>
        <time>2019-11-10T12:00:14.001Z</time>
      </trkpt>
      <trkpt lat="47.76947" lon="-1.84616">
        <ele>3.638</ele>
        <time>2019-11-10T12:00:47.001Z</time>
      </trkpt>
      <trkpt lat="47.77034" lon="-1.84496">
        <ele>7.9</ele>
        <time>2019-11-10T12:01:20.001Z</time>
      </trkpt>
      <trkpt lat="47.77114" lon="-1.84347">
        <ele>1.396</ele>
        <time>2019-11-10T12:01:53.001Z</time>
      </trkpt>
      <trkpt lat="47.7718" lon="-1.84203">
        <ele>5.469</ele>
        <time>2019-11-10T12:02:26.001Z</time>
      </trkpt>
      <trkpt lat="47.77254" lon="-1.84069">
        <ele>2.429</ele>
        <time>2019-11-10T12:02:59.001Z</time>
      </trkpt>
      <trkpt lat="47.77336" lon="-1.83955">
        <ele>4.648</ele>
        <time>2019-11-10T12:03:32.001Z</time>
      </trkpt>
      <trkpt lat="47.77457" lon="-1.83956">
        <ele>6.582</ele>
        <time>2019-11-10T12:04:05.001Z</time>
      </trkpt>
      <trkpt lat="47.77564" lon="-1.84018">
        <ele>7.4</ele>
        <time>2019-11-10T12:04:38.001Z</time>
      </trkpt>
      <trkpt lat="47.77662" lon="-1.84118">
        <ele>1.792</ele>
        <time>2019-11-10T12:05:11.001Z</time>
      </trkpt>
      <trkpt lat="47.77769" lon="-1.84216">
        <ele>3.551</ele>
        <time>2019-11-10T12:05:44.001Z</time>
      </trkpt>
      <trkpt lat="47.77882" lon="-1.84297">
        <ele>4.547</ele>
        <time>2019-11-10T12:06:17.001Z</time>
      </trkpt>
      <trkpt lat="47.7799" lon="-1.84399">
        <ele>5.259</ele>
        <time>2019-11-10T12:06:50.001Z</time>
      </trkpt>
      <trkpt lat="47.78094" lon="-1.84487">
        <ele>2.084</ele>
        <time>2019-11-10T12:07:23.001Z</time>
      </trkpt>
      <trkpt lat="47.78199" lon="-1.8458">
        <ele>8.3</ele>
        <time>2019-11-10T12:07:56.001Z</time>
      </trkpt>
      <trkpt lat="47.78307" lon="-1.84669">
        <ele>3.302</ele>
        <time>2019-11-10T12:08:29.001Z</time>
      </trkpt>
      <trkpt lat="47.7842" lon="-1.8474">
        <ele>4.401</ele>
        <time>2019-11-10T12:09:02Z</time>
      </trkpt>
      <trkpt lat="47.78552" lon="-1.8478">
        <ele>3.533</ele>
        <time>2019-11-10T12:09:35.001Z</time>
      </trkpt>
      <trkpt lat="47.78654" lon="-1.8471">
        <ele>1.502</ele>
        <time>2019-11-10T12:10:08.001Z</time>
      </trkpt>
      <trkpt lat="47.7875" lon="-1.84577">
        <ele>7</ele>
        <time>2019-11-10T12:10:41.001Z</time>
      </trkpt>
      <trkpt lat="47.78829" lon="-1.84442">
        <ele>8.1</ele>
        <time>2019-11-10T12:11:14.001Z</time>
      </trkpt>
      <trkpt lat="47.78934" lon="-1.84338">
        <ele>1.586</ele>
        <time>2019-11-10T12:11:47.001Z</time>
      </trkpt>
      <trkpt lat="47.7904" lon="-1.84249">
        <ele>3.309</ele>
        <time>2019-11-10T12:12:20.001Z</time>
      </trkpt>
      <trkpt lat="47.79137" lon="-1.84138">
        <ele>4.244</ele>
        <time>2019-11-10T12:12:53.001Z</time>
      </trkpt>
      <trkpt lat="47.79255" lon="-1.84077">
        <ele>8.035</ele>
        <time>2019-11-10T12:13:26.001Z</time>
      </trkpt>
      <trkpt lat="47.79373" lon="-1.84018">
        <ele>5.93</ele>
        <time>2019-11-10T12:13:59.001Z</time>
      </trkpt>
      <trkpt lat="47.79507" lon="-1.8403">
        <ele>2.225</ele>
        <time>2019-11-10T12:14:32.001Z</time>
      </trkpt>
      <trkpt lat="47.79628" lon="-1.84087">
        <ele>0.881</ele>
        <time>2019-11-10T12:15:05.001Z</time>
      </trkpt>
      <trkpt lat="47.79736" lon="-1.84193">
        <ele>6.9</ele>
        <time>2019-11-10T12:15:38.001Z</time>
      </trkpt>
      <trkpt lat="47.7985" lon="-1.84295">
        <ele>6.6</ele>
        <time>2019-11-10T12:16:11.001Z</time>
      </trkpt>
      <trkpt lat="47.79975" lon="-1.84349">
        <ele>8.7</ele>
        <time>2019-11-10T12:16:44.001Z</time>
      </trkpt>
      <trkpt lat="47.80118" lon="-1.84398">
        <ele>7.6</ele>
        <time>2019-11-10T12:17:17.001Z</time>
      </trkpt>
      <trkpt lat="47.80255" lon="-1.8451">
        <ele>8</ele>
        <time>2019-11-10T12:17:50.001Z</time>
      </trkpt>
      <trkpt lat="47.80386" lon="-1.84609">
        <ele>8.1</ele>
        <time>2019-11-10T12:18:26.001Z</time>
      </trkpt>
      <trkpt lat="47.80509" lon="-1.84632">
        <ele>1.785</ele>
        <time>2019-11-10T12:18:59.001Z</time>
      </trkpt>
      <trkpt lat="47.80633" lon="-1.84652">
        <ele>6</ele>
        <time>2019-11-10T12:19:32.001Z</time>
      </trkpt>
      <trkpt lat="47.80754" lon="-1.84683">
        <ele>7</ele>
        <time>2019-11-10T12:20:05.001Z</time>
      </trkpt>
      <trkpt lat="47.8088" lon="-1.8471">
        <ele>0.934</ele>
        <time>2019-11-10T12:20:38.001Z</time>
      </trkpt>
      <trkpt lat="47.80998" lon="-1.84698">
        <ele>2.52</ele>
        <time>2019-11-10T12:21:11.001Z</time>
      </trkpt>
      <trkpt lat="47.81115" lon="-1.84645">
        <ele>3.224</ele>
        <time>2019-11-10T12:21:44.001Z</time>
      </trkpt>
      <trkpt lat="47.81227" lon="-1.84552">
        <ele>4.9</ele>
        <time>2019-11-10T12:22:17.001Z</time>
      </trkpt>
      <trkpt lat="47.81328" lon="-1.84431">
        <ele>4.247</ele>
        <time>2019-11-10T12:22:50.001Z</time>
      </trkpt>
      <trkpt lat="47.81432" lon="-1.8433">
        <ele>2.304</ele>
        <time>2019-11-10T12:23:23.001Z</time>
      </trkpt>
      <trkpt lat="47.81515" lon="-1.84201">
        <ele>4.587</ele>
        <time>2019-11-10T12:23:56.001Z</time>
      </trkpt>
      <trkpt lat="47.81554" lon="-1.84018">
        <ele>3.828</ele>
        <time>2019-11-10T12:24:29.001Z</time>
      </trkpt>
      <trkpt lat="47.8151" lon="-1.83834">
        <ele>5.1</ele>
        <time>2019-11-10T12:25:02Z</time>
      </trkpt>
      <trkpt lat="47.81433" lon="-1.83691">
        <ele>4.042</ele>
        <time>2019-11-10T12:25:35.001Z</time>
      </trkpt>
      <trkpt lat="47.81461" lon="-1.83504">
        <ele>5.201</ele>
        <time>2019-11-10T12:26:08.001Z</time>
      </trkpt>
      <trkpt lat="47.81527" lon="-1.83351">
        <ele>5.462</ele>
        <time>2019-11-10T12:26:41.001Z</time>
      </trkpt>
      <trkpt lat="47.81595" lon="-1.83217">
        <ele>0.557</ele>
        <time>2019-11-10T12:27:14.001Z</time>
      </trkpt>
      <trkpt lat="47.81621" lon="-1.83099">
        <ele>2.662</ele>
        <time>2019-11-10T12:45:23.001Z</time>
      </trkpt>
      <trkpt lat="47.81688" lon="-1.82952">
        <ele>4.012</ele>
        <time>2019-11-10T12:45:56.001Z</time>
      </trkpt>
      <trkpt lat="47.81799" lon="-1.829">
        <ele>6.197</ele>
        <time>2019-11-10T12:46:29.001Z</time>
      </trkpt>
      <trkpt lat="47.81913" lon="-1.82882">
        <ele>3.38</ele>
        <time>2019-11-10T12:47:02Z</time>
      </trkpt>
      <trkpt lat="47.82003" lon="-1.82748">
        <ele>5.14</ele>
        <time>2019-11-10T12:47:35.001Z</time>
      </trkpt>
      <trkpt lat="47.82036" lon="-1.82709">
        <ele>6.198</ele>
        <time>2019-11-10T12:50:14.001Z</time>
      </trkpt>
      <trkpt lat="47.81963" lon="-1.82812">
        <ele>6.654</ele>
        <time>2019-11-10T12:50:47.001Z</time>
      </trkpt>
      <trkpt lat="47.81939" lon="-1.82897">
        <ele>2.634</ele>
        <time>2019-11-10T12:51:59.001Z</time>
      </trkpt>
      <trkpt lat="47.82001" lon="-1.83009">
        <ele>5.257</ele>
        <time>2019-11-10T12:52:44.001Z</time>
      </trkpt>
      <trkpt lat="47.82078" lon="-1.83153">
        <ele>3.018</ele>
        <time>2019-11-10T12:53:17.001Z</time>
      </trkpt>
      <trkpt lat="47.82185" lon="-1.83221">
        <ele>12.881</ele>
        <time>2019-11-10T12:53:50.001Z</time>
      </trkpt>
      <trkpt lat="47.82179" lon="-1.83039">
        <ele>8.145</ele>
        <time>2019-11-10T12:54:23.001Z</time>
      </trkpt>
      <trkpt lat="47.8214" lon="-1.82795">
        <ele>0.453</ele>
        <time>2019-11-10T12:54:56.001Z</time>
      </trkpt>
      <trkpt lat="47.82138" lon="-1.82569">
        <ele>6.412</ele>
        <time>2019-11-10T12:55:29.001Z</time>
      </trkpt>
      <trkpt lat="47.82211" lon="-1.82379">
        <ele>9.341</ele>
        <time>2019-11-10T12:56:02Z</time>
      </trkpt>
      <trkpt lat="47.82233" lon="-1.82292">
        <ele>10.314</ele>
        <time>2019-11-10T13:01:35.001Z</time>
      </trkpt>
      <trkpt lat="47.82159" lon="-1.82215">
        <ele>6.488</ele>
        <time>2019-11-10T13:02:08.001Z</time>
      </trkpt>
      <trkpt lat="47.82149" lon="-1.82038">
        <ele>8.956</ele>
        <time>2019-11-10T13:02:41.001Z</time>
      </trkpt>
      <trkpt lat="47.82264" lon="-1.8188">
        <ele>9.805</ele>
        <time>2019-11-10T13:03:14.001Z</time>
      </trkpt>
      <trkpt lat="47.82366" lon="-1.81712">
        <ele>8.429</ele>
        <time>2019-11-10T13:03:47.001Z</time>
      </trkpt>
      <trkpt lat="47.82469" lon="-1.81528">
        <ele>11.101</ele>
        <time>2019-11-10T13:04:23.001Z</time>
      </trkpt>
      <trkpt lat="47.82563" lon="-1.81346">
        <ele>9.257</ele>
        <time>2019-11-10T13:04:56.001Z</time>
      </trkpt>
      <trkpt lat="47.82668" lon="-1.81182">
        <ele>7.836</ele>
        <time>2019-11-10T13:05:29.001Z</time>
      </trkpt>
      <trkpt lat="47.82772" lon="-1.8102">
        <ele>6.209</ele>
        <time>2019-11-10T13:06:02Z</time>
      </trkpt>
      <trkpt lat="47.82859" lon="-1.80883">
        <ele>8.535</ele>
        <time>2019-11-10T13:06:35.001Z</time>
      </trkpt>
      <trkpt lat="47.82931" lon="-1.80769">
        <ele>10.966</ele>
        <time>2019-11-10T13:07:08.001Z</time>
      </trkpt>
      <trkpt lat="47.83011" lon="-1.80643">
        <ele>11.408</ele>
        <time>2019-11-10T13:07:41.001Z</time>
      </trkpt>
      <trkpt lat="47.83121" lon="-1.80509">
        <ele>10.408</ele>
        <time>2019-11-10T13:08:14.001Z</time>
      </trkpt>
      <trkpt lat="47.8323" lon="-1.80302">
        <ele>8.3</ele>
        <time>2019-11-10T13:08:47.001Z</time>
      </trkpt>
      <trkpt lat="47.83344" lon="-1.80103">
        <ele>8.917</ele>
        <time>2019-11-10T13:09:20.001Z</time>
      </trkpt>
      <trkpt lat="47.83402" lon="-1.7992">
        <ele>14.225</ele>
        <time>2019-11-10T13:09:53.001Z</time>
      </trkpt>
      <trkpt lat="47.83336" lon="-1.79831">
        <ele>16.707</ele>
        <time>2019-11-10T13:10:26.001Z</time>
      </trkpt>
      <trkpt lat="47.83262" lon="-1.79757">
        <ele>20.59</ele>
        <time>2019-11-10T13:10:59.001Z</time>
      </trkpt>
      <trkpt lat="47.8321" lon="-1.7969">
        <ele>24.112</ele>
        <time>2019-11-10T13:11:32.001Z</time>
      </trkpt>
      <trkpt lat="47.83149" lon="-1.7963">
        <ele>29.643</ele>
        <time>2019-11-10T13:12:05.001Z</time>
      </trkpt>
      <trkpt lat="47.83127" lon="-1.79564">
        <ele>30.826</ele>
        <time>2019-11-10T13:12:38.001Z</time>
      </trkpt>
      <trkpt lat="47.83222" lon="-1.79431">
        <ele>27.327</ele>
        <time>2019-11-10T13:13:11.001Z</time>
      </trkpt>
      <trkpt lat="47.83338" lon="-1.79272">
        <ele>24.323</ele>
        <time>2019-11-10T13:13:44.001Z</time>
      </trkpt>
      <trkpt lat="47.83452" lon="-1.78905">
        <ele>10.379</ele>
        <time>2019-11-10T13:14:17.001Z</time>
      </trkpt>
      <trkpt lat="47.83561" lon="-1.78585">
        <ele>6.584</ele>
        <time>2019-11-10T13:14:50.001Z</time>
      </trkpt>
      <trkpt lat="47.83663" lon="-1.78368">
        <ele>7.828</ele>
        <time>2019-11-10T13:15:23.001Z</time>
      </trkpt>
      <trkpt lat="47.83794" lon="-1.78233">
        <ele>8.987</ele>
        <time>2019-11-10T13:15:56.001Z</time>
      </trkpt>
      <trkpt lat="47.83955" lon="-1.78096">
        <ele>9.912</ele>
        <time>2019-11-10T13:16:29.001Z</time>
      </trkpt>
      <trkpt lat="47.84056" lon="-1.77997">
        <ele>15.337</ele>
        <time>2019-11-10T13:17:02Z</time>
      </trkpt>
      <trkpt lat="47.84118" lon="-1.77933">
        <ele>17.374</ele>
        <time>2019-11-10T13:17:35.001Z</time>
      </trkpt>
      <trkpt lat="47.84184" lon="-1.77867">
        <ele>21.667</ele>
        <time>2019-11-10T13:18:08.001Z</time>
      </trkpt>
      <trkpt lat="47.84247" lon="-1.77736">
        <ele>22.251</ele>
        <time>2019-11-10T13:18:41.001Z</time>
      </trkpt>
      <trkpt lat="47.84323" lon="-1.77564">
        <ele>19</ele>
        <time>2019-11-10T13:19:14.001Z</time>
      </trkpt>
      <trkpt lat="47.84437" lon="-1.77493">
        <ele>24.491</ele>
        <time>2019-11-10T13:19:47.001Z</time>
      </trkpt>
      <trkpt lat="47.84593" lon="-1.77318">
        <ele>22.271</ele>
        <time>2019-11-10T13:20:20.001Z</time>
      </trkpt>
      <trkpt lat="47.84674" lon="-1.77336">
        <ele>28.448</ele>
        <time>2019-11-10T13:20:53.001Z</time>
      </trkpt>
      <trkpt lat="47.84752" lon="-1.77353">
        <ele>37.97</ele>
        <time>2019-11-10T13:21:26.001Z</time>
      </trkpt>
      <trkpt lat="47.84861" lon="-1.77355">
        <ele>32.117</ele>
        <time>2019-11-10T13:21:59.001Z</time>
      </trkpt>
      <trkpt lat="47.85051" lon="-1.77314">
        <ele>29.357</ele>
        <time>2019-11-10T13:22:32.001Z</time>
      </trkpt>
      <trkpt lat="47.85112" lon="-1.77301">
        <ele>27.527</ele>
        <time>2019-11-10T13:23:08.001Z</time>
      </trkpt>
      <trkpt lat="47.85177" lon="-1.77298">
        <ele>42.59</ele>
        <time>2019-11-10T13:23:47.001Z</time>
      </trkpt>
      <trkpt lat="47.85244" lon="-1.77308">
        <ele>46.926</ele>
        <time>2019-11-10T13:24:20.001Z</time>
      </trkpt>
      <trkpt lat="47.85525" lon="-1.77377">
        <ele>34.171</ele>
        <time>2019-11-10T13:24:56.001Z</time>
      </trkpt>
      <trkpt lat="47.85734" lon="-1.7744">
        <ele>22.303</ele>
        <time>2019-11-10T13:25:29.001Z</time>
      </trkpt>
      <trkpt lat="47.85941" lon="-1.77463">
        <ele>20.064</ele>
        <time>2019-11-10T13:26:02Z</time>
      </trkpt>
      <trkpt lat="47.86177" lon="-1.7749">
        <ele>25.34</ele>
        <time>2019-11-10T13:26:35.001Z</time>
      </trkpt>
      <trkpt lat="47.86296" lon="-1.7736">
        <ele>20.861</ele>
        <time>2019-11-10T13:27:08.001Z</time>
      </trkpt>
      <trkpt lat="47.86353" lon="-1.7724">
        <ele>17.306</ele>
        <time>2019-11-10T13:27:41.001Z</time>
      </trkpt>
      <trkpt lat="47.8644" lon="-1.77143">
        <ele>18.71</ele>
        <time>2019-11-10T13:28:14.001Z</time>
      </trkpt>
      <trkpt lat="47.86565" lon="-1.77071">
        <ele>19.18</ele>
        <time>2019-11-10T13:28:47.001Z</time>
      </trkpt>
      <trkpt lat="47.86719" lon="-1.77121">
        <ele>19.738</ele>
        <time>2019-11-10T13:29:20.001Z</time>
      </trkpt>
      <trkpt lat="47.86828" lon="-1.77193">
        <ele>24.079</ele>
        <time>2019-11-10T13:29:53.001Z</time>
      </trkpt>
      <trkpt lat="47.86955" lon="-1.77365">
        <ele>25.953</ele>
        <time>2019-11-10T13:30:26.001Z</time>
      </trkpt>
      <trkpt lat="47.87116" lon="-1.77525">
        <ele>22.103</ele>
        <time>2019-11-10T13:30:59.001Z</time>
      </trkpt>
      <trkpt lat="47.87283" lon="-1.77622">
        <ele>15.569</ele>
        <time>2019-11-10T13:31:32.001Z</time>
      </trkpt>
      <trkpt lat="47.87342" lon="-1.77795">
        <ele>19.082</ele>
        <time>2019-11-10T13:32:05.001Z</time>
      </trkpt>
      <trkpt lat="47.87512" lon="-1.77811">
        <ele>16.555</ele>
        <time>2019-11-10T13:32:38.001Z</time>
      </trkpt>
      <trkpt lat="47.87674" lon="-1.77856">
        <ele>14.038</ele>
        <time>2019-11-10T13:33:11.001Z</time>
      </trkpt>
      <trkpt lat="47.87816" lon="-1.77975">
        <ele>15.062</ele>
        <time>2019-11-10T13:33:44.001Z</time>
      </trkpt>
      <trkpt lat="47.87935" lon="-1.78088">
        <ele>13.355</ele>
        <time>2019-11-10T13:34:17.001Z</time>
      </trkpt>
      <trkpt lat="47.88074" lon="-1.78225">
        <ele>16.427</ele>
        <time>2019-11-10T13:34:50.001Z</time>
      </trkpt>
      <trkpt lat="47.88187" lon="-1.78383">
        <ele>19.232</ele>
        <time>2019-11-10T13:35:23.001Z</time>
      </trkpt>
      <trkpt lat="47.88341" lon="-1.78537">
        <ele>12.644</ele>
        <time>2019-11-10T13:35:56.001Z</time>
      </trkpt>
      <trkpt lat="47.88497" lon="-1.78601">
        <ele>13.785</ele>
        <time>2019-11-10T13:36:29.001Z</time>
      </trkpt>
      <trkpt lat="47.88652" lon="-1.78638">
        <ele>12.355</ele>
        <time>2019-11-10T13:37:02Z</time>
      </trkpt>
      <trkpt lat="47.88811" lon="-1.78633">
        <ele>12.616</ele>
        <time>2019-11-10T13:37:35.001Z</time>
      </trkpt>
      <trkpt lat="47.88971" lon="-1.7868">
        <ele>11.751</ele>
        <time>2019-11-10T13:38:08.001Z</time>
      </trkpt>
      <trkpt lat="47.89112" lon="-1.78625">
        <ele>12.557</ele>
        <time>2019-11-10T13:38:41.001Z</time>
      </trkpt>
      <trkpt lat="47.89169" lon="-1.78607">
        <ele>21.79</ele>
        <time>2019-11-10T13:45:14.001Z</time>
      </trkpt>
      <trkpt lat="47.89286" lon="-1.78493">
        <ele>29.268</ele>
        <time>2019-11-10T13:45:47.001Z</time>
      </trkpt>
      <trkpt lat="47.8938" lon="-1.7831">
        <ele>37.757</ele>
        <time>2019-11-10T13:46:20.001Z</time>
      </trkpt>
      <trkpt lat="47.89433" lon="-1.7819">
        <ele>21.742</ele>
        <time>2019-11-10T13:50:05.001Z</time>
      </trkpt>
      <trkpt lat="47.89474" lon="-1.78152">
        <ele>22.42</ele>
        <time>2019-11-10T13:51:29.001Z</time>
      </trkpt>
      <trkpt lat="47.89547" lon="-1.78113">
        <ele>26.154</ele>
        <time>2019-11-10T13:52:02Z</time>
      </trkpt>
      <trkpt lat="47.89665" lon="-1.7797">
        <ele>23.144</ele>
        <time>2019-11-10T13:52:35.001Z</time>
      </trkpt>
      <trkpt lat="47.89762" lon="-1.77954">
        <ele>27.299</ele>
        <time>2019-11-10T13:53:08.001Z</time>
      </trkpt>
      <trkpt lat="47.89854" lon="-1.77962">
        <ele>32.559</ele>
        <time>2019-11-10T13:53:41.001Z</time>
      </trkpt>
      <trkpt lat="47.89933" lon="-1.77956">
        <ele>31.217</ele>
        <time>2019-11-10T13:54:20.001Z</time>
      </trkpt>
      <trkpt lat="47.90014" lon="-1.77935">
        <ele>35.819</ele>
        <time>2019-11-10T13:54:56.001Z</time>
      </trkpt>
      <trkpt lat="47.90085" lon="-1.77906">
        <ele>41.696</ele>
        <time>2019-11-10T13:55:29.001Z</time>
      </trkpt>
      <trkpt lat="47.90156" lon="-1.77853">
        <ele>47.47</ele>
        <time>2019-11-10T13:56:02Z</time>
      </trkpt>
      <trkpt lat="47.90214" lon="-1.77786">
        <ele>52.555</ele>
        <time>2019-11-10T13:56:47.001Z</time>
      </trkpt>
      <trkpt lat="47.90274" lon="-1.77789">
        <ele>53.891</ele>
        <time>2019-11-10T13:57:26.001Z</time>
      </trkpt>
      <trkpt lat="47.90331" lon="-1.77823">
        <ele>57.02</ele>
        <time>2019-11-10T13:58:02Z</time>
      </trkpt>
      <trkpt lat="47.9039" lon="-1.77826">
        <ele>59.75</ele>
        <time>2019-11-10T13:58:38.001Z</time>
      </trkpt>
      <trkpt lat="47.90502" lon="-1.77816">
        <ele>58.788</ele>
        <time>2019-11-10T13:59:11.001Z</time>
      </trkpt>
      <trkpt lat="47.90577" lon="-1.77862">
        <ele>66.953</ele>
        <time>2019-11-10T13:59:44.001Z</time>
      </trkpt>
      <trkpt lat="47.90637" lon="-1.77886">
        <ele>75.892</ele>
        <time>2019-11-10T14:00:23.001Z</time>
      </trkpt>
      <trkpt lat="47.90703" lon="-1.77901">
        <ele>83.816</ele>
        <time>2019-11-10T14:00:59.001Z</time>
      </trkpt>
      <trkpt lat="47.90765" lon="-1.77934">
        <ele>92.867</ele>
        <time>2019-11-10T14:01:41.001Z</time>
      </trkpt>
      <trkpt lat="47.90814" lon="-1.77941">
        <ele>92.912</ele>
        <time>2019-11-10T14:02:14.001Z</time>
      </trkpt>
      <trkpt lat="47.90871" lon="-1.7795">
        <ele>99.66</ele>
        <time>2019-11-10T14:02:47.001Z</time>
      </trkpt>
      <trkpt lat="47.90935" lon="-1.7796">
        <ele>100.634</ele>
        <time>2019-11-10T14:03:23.001Z</time>
      </trkpt>
      <trkpt lat="47.91001" lon="-1.77968">
        <ele>105.094</ele>
        <time>2019-11-10T14:03:56.001Z</time>
      </trkpt>
      <trkpt lat="47.9108" lon="-1.77977">
        <ele>113.28</ele>
        <time>2019-11-10T14:04:32.001Z</time>
      </trkpt>
      <trkpt lat="47.91243" lon="-1.77998">
        <ele>110.109</ele>
        <time>2019-11-10T14:05:05.001Z</time>
      </trkpt>
      <trkpt lat="47.91317" lon="-1.77879">
        <ele>117.586</ele>
        <time>2019-11-10T14:05:38.001Z</time>
      </trkpt>
      <trkpt lat="47.91455" lon="-1.77765">
        <ele>105.097</ele>
        <time>2019-11-10T14:06:11.001Z</time>
      </trkpt>
      <trkpt lat="47.91702" lon="-1.77706">
        <ele>83.812</ele>
        <time>2019-11-10T14:06:44.001Z</time>
      </trkpt>
      <trkpt lat="47.91745" lon="-1.77978">
        <ele>80.698</ele>
        <time>2019-11-10T14:07:17.001Z</time>
      </trkpt>
      <trkpt lat="47.9194" lon="-1.78279">
        <ele>72.228</ele>
        <time>2019-11-10T14:07:50.001Z</time>
      </trkpt>
      <trkpt lat="47.92282" lon="-1.78298">
        <ele>49.169</ele>
        <time>2019-11-10T14:08:23.001Z</time>
      </trkpt>
      <trkpt lat="47.92398" lon="-1.78296">
        <ele>51.725</ele>
        <time>2019-11-10T14:08:56.001Z</time>
      </trkpt>
      <trkpt lat="47.92478" lon="-1.78314">
        <ele>57.974</ele>
        <time>2019-11-10T14:09:29.001Z</time>
      </trkpt>
      <trkpt lat="47.9253" lon="-1.78212">
        <ele>64.807</ele>
        <time>2019-11-10T14:10:02Z</time>
      </trkpt>
      <trkpt lat="47.92586" lon="-1.78084">
        <ele>62.291</ele>
        <time>2019-11-10T14:10:35.001Z</time>
      </trkpt>
      <trkpt lat="47.92632" lon="-1.77954">
        <ele>62.292</ele>
        <time>2019-11-10T14:11:08.001Z</time>
      </trkpt>
      <trkpt lat="47.92671" lon="-1.77661">
        <ele>52.731</ele>
        <time>2019-11-10T14:11:41.001Z</time>
      </trkpt>
      <trkpt lat="47.92834" lon="-1.77177">
        <ele>37.797</ele>
        <time>2019-11-10T14:12:14.001Z</time>
      </trkpt>
      <trkpt lat="47.93003" lon="-1.76693">
        <ele>10.104</ele>
        <time>2019-11-10T14:12:47.001Z</time>
      </trkpt>
      <trkpt lat="47.93112" lon="-1.76606">
        <ele>20.041</ele>
        <time>2019-11-10T14:13:20.001Z</time>
      </trkpt>
      <trkpt lat="47.93196" lon="-1.76583">
        <ele>34.307</ele>
        <time>2019-11-10T14:13:56.001Z</time>
      </trkpt>
      <trkpt lat="47.93268" lon="-1.76569">
        <ele>39.34</ele>
        <time>2019-11-10T14:14:29.001Z</time>
      </trkpt>
      <trkpt lat="47.9335" lon="-1.76585">
        <ele>41.811</ele>
        <time>2019-11-10T14:15:02Z</time>
      </trkpt>
      <trkpt lat="47.93441" lon="-1.76604">
        <ele>40.713</ele>
        <time>2019-11-10T14:15:35.001Z</time>
      </trkpt>
      <trkpt lat="47.93528" lon="-1.76565">
        <ele>44.614</ele>
        <time>2019-11-10T14:16:11.001Z</time>
      </trkpt>
      <trkpt lat="47.93591" lon="-1.76402">
        <ele>46.507</ele>
        <time>2019-11-10T14:16:44.001Z</time>
      </trkpt>
      <trkpt lat="47.93587" lon="-1.76027">
        <ele>29.913</ele>
        <time>2019-11-10T14:17:17.001Z</time>
      </trkpt>
      <trkpt lat="47.93711" lon="-1.75865">
        <ele>23.28</ele>
        <time>2019-11-10T14:17:50.001Z</time>
      </trkpt>
      <trkpt lat="47.93799" lon="-1.75666">
        <ele>21.298</ele>
        <time>2019-11-10T14:18:23.001Z</time>
      </trkpt>
      <trkpt lat="47.9393" lon="-1.75564">
        <ele>27.779</ele>
        <time>2019-11-10T14:18:56.001Z</time>
      </trkpt>
      <trkpt lat="47.94062" lon="-1.75527">
        <ele>30.524</ele>
        <time>2019-11-10T14:19:29.001Z</time>
      </trkpt>
      <trkpt lat="47.94127" lon="-1.75439">
        <ele>32.173</ele>
        <time>2019-11-10T14:20:02Z</time>
      </trkpt>
      <trkpt lat="47.94159" lon="-1.75248">
        <ele>23.655</ele>
        <time>2019-11-10T14:20:35.001Z</time>
      </trkpt>
      <trkpt lat="47.94364" lon="-1.75213">
        <ele>20.062</ele>
        <time>2019-11-10T14:21:08.001Z</time>
      </trkpt>
      <trkpt lat="47.94522" lon="-1.75192">
        <ele>18.607</ele>
        <time>2019-11-10T14:21:44.001Z</time>
      </trkpt>
      <trkpt lat="47.946" lon="-1.75174">
        <ele>19.77</ele>
        <time>2019-11-10T14:22:47.001Z</time>
      </trkpt>
      <trkpt lat="47.94677" lon="-1.75133">
        <ele>22.711</ele>
        <time>2019-11-10T14:23:35.001Z</time>
      </trkpt>
      <trkpt lat="47.948" lon="-1.75088">
        <ele>22.185</ele>
        <time>2019-11-10T14:24:08.001Z</time>
      </trkpt>
      <trkpt lat="47.94946" lon="-1.75019">
        <ele>22.724</ele>
        <time>2019-11-10T14:24:41.001Z</time>
      </trkpt>
      <trkpt lat="47.95089" lon="-1.74976">
        <ele>27.348</ele>
        <time>2019-11-10T14:25:14.001Z</time>
      </trkpt>
      <trkpt lat="47.9519" lon="-1.74962">
        <ele>23.427</ele>
        <time>2019-11-10T14:25:50.001Z</time>
      </trkpt>
      <trkpt lat="47.95197" lon="-1.74963">
        <ele>27.823</ele>
        <time>2019-11-10T14:27:35.001Z</time>
      </trkpt>
      <trkpt lat="47.95275" lon="-1.74883">
        <ele>17.324</ele>
        <time>2019-11-10T14:28:11.001Z</time>
      </trkpt>
      <trkpt lat="47.95337" lon="-1.74799">
        <ele>21.141</ele>
        <time>2019-11-10T14:28:47.001Z</time>
      </trkpt>
      <trkpt lat="47.95428" lon="-1.74726">
        <ele>21.754</ele>
        <time>2019-11-10T14:29:20.001Z</time>
      </trkpt>
      <trkpt lat="47.95478" lon="-1.74704">
        <ele>22.741</ele>
        <time>2019-11-10T14:30:08.001Z</time>
      </trkpt>
      <trkpt lat="47.95588" lon="-1.74686">
        <ele>23.377</ele>
        <time>2019-11-10T14:30:44.001Z</time>
      </trkpt>
      <trkpt lat="47.95699" lon="-1.74694">
        <ele>24.663</ele>
        <time>2019-11-10T14:31:17.001Z</time>
      </trkpt>
      <trkpt lat="47.95827" lon="-1.74711">
        <ele>27.711</ele>
        <time>2019-11-10T14:31:50.001Z</time>
      </trkpt>
      <trkpt lat="47.95929" lon="-1.74719">
        <ele>31.669</ele>
        <time>2019-11-10T14:32:23.001Z</time>
      </trkpt>
      <trkpt lat="47.96064" lon="-1.74721">
        <ele>30.926</ele>
        <time>2019-11-10T14:32:56.001Z</time>
      </trkpt>
      <trkpt lat="47.96186" lon="-1.74629">
        <ele>19.523</ele>
        <time>2019-11-10T14:33:29.001Z</time>
      </trkpt>
      <trkpt lat="47.96297" lon="-1.74533">
        <ele>15.099</ele>
        <time>2019-11-10T14:34:02Z</time>
      </trkpt>
      <trkpt lat="47.96419" lon="-1.74477">
        <ele>14.024</ele>
        <time>2019-11-10T14:34:35.001Z</time>
      </trkpt>
      <trkpt lat="47.96527" lon="-1.74491">
        <ele>17.284</ele>
        <time>2019-11-10T14:35:08.001Z</time>
      </trkpt>
      <trkpt lat="47.96637" lon="-1.74589">
        <ele>17.807</ele>
        <time>2019-11-10T14:35:41.001Z</time>
      </trkpt>
      <trkpt lat="47.96746" lon="-1.74701">
        <ele>13.072</ele>
        <time>2019-11-10T14:36:14.001Z</time>
      </trkpt>
      <trkpt lat="47.96856" lon="-1.74791">
        <ele>14.176</ele>
        <time>2019-11-10T14:36:47.001Z</time>
      </trkpt>
      <trkpt lat="47.96976" lon="-1.74852">
        <ele>21.49</ele>
        <time>2019-11-10T14:37:20.001Z</time>
      </trkpt>
      <trkpt lat="47.9711" lon="-1.74876">
        <ele>24.368</ele>
        <time>2019-11-10T14:37:53.001Z</time>
      </trkpt>
      <trkpt lat="47.97235" lon="-1.74904">
        <ele>18.18</ele>
        <time>2019-11-10T14:38:26.001Z</time>
      </trkpt>
      <trkpt lat="47.97376" lon="-1.74985">
        <ele>21.711</ele>
        <time>2019-11-10T14:39:02Z</time>
      </trkpt>
      <trkpt lat="47.97525" lon="-1.75013">
        <ele>21.444</ele>
        <time>2019-11-10T14:39:35.001Z</time>
      </trkpt>
      <trkpt lat="47.97656" lon="-1.75093">
        <ele>14.476</ele>
        <time>2019-11-10T14:40:08.001Z</time>
      </trkpt>
      <trkpt lat="47.97777" lon="-1.7522">
        <ele>11.284</ele>
        <time>2019-11-10T14:40:41.001Z</time>
      </trkpt>
      <trkpt lat="47.97906" lon="-1.75311">
        <ele>15.76</ele>
        <time>2019-11-10T14:41:14.001Z</time>
      </trkpt>
      <trkpt lat="47.97993" lon="-1.7538">
        <ele>24.179</ele>
        <time>2019-11-10T14:41:47.001Z</time>
      </trkpt>
      <trkpt lat="47.98137" lon="-1.75477">
        <ele>20.575</ele>
        <time>2019-11-10T14:42:23.001Z</time>
      </trkpt>
      <trkpt lat="47.98259" lon="-1.75567">
        <ele>17.683</ele>
        <time>2019-11-10T14:42:56.001Z</time>
      </trkpt>
      <trkpt lat="47.98377" lon="-1.75654">
        <ele>19.72</ele>
        <time>2019-11-10T14:43:32.001Z</time>
      </trkpt>
      <trkpt lat="47.98481" lon="-1.75737">
        <ele>29.486</ele>
        <time>2019-11-10T14:44:11.001Z</time>
      </trkpt>
      <trkpt lat="47.98628" lon="-1.75819">
        <ele>25.836</ele>
        <time>2019-11-10T14:44:44.001Z</time>
      </trkpt>
      <trkpt lat="47.98751" lon="-1.75862">
        <ele>20.882</ele>
        <time>2019-11-10T14:45:17.001Z</time>
      </trkpt>
      <trkpt lat="47.98904" lon="-1.75751">
        <ele>17.518</ele>
        <time>2019-11-10T14:45:50.001Z</time>
      </trkpt>
      <trkpt lat="47.99049" lon="-1.75685">
        <ele>15.179</ele>
        <time>2019-11-10T14:46:23.001Z</time>
      </trkpt>
      <trkpt lat="47.99164" lon="-1.75614">
        <ele>17.008</ele>
        <time>2019-11-10T14:46:56.001Z</time>
      </trkpt>
      <trkpt lat="47.99251" lon="-1.7556">
        <ele>14.933</ele>
        <time>2019-11-10T14:47:32.001Z</time>
      </trkpt>
      <trkpt lat="47.99359" lon="-1.75452">
        <ele>14.881</ele>
        <time>2019-11-10T14:48:05.001Z</time>
      </trkpt>
      <trkpt lat="47.99437" lon="-1.75303">
        <ele>12.649</ele>
        <time>2019-11-10T14:48:41.001Z</time>
      </trkpt>
      <trkpt lat="47.99523" lon="-1.75189">
        <ele>13.677</ele>
        <time>2019-11-10T14:49:14.001Z</time>
      </trkpt>
      <trkpt lat="47.99627" lon="-1.75241">
        <ele>16.205</ele>
        <time>2019-11-10T14:49:50.001Z</time>
      </trkpt>
      <trkpt lat="47.99683" lon="-1.75402">
        <ele>23.05</ele>
        <time>2019-11-10T14:50:23.001Z</time>
      </trkpt>
      <trkpt lat="47.99704" lon="-1.75591">
        <ele>26.157</ele>
        <time>2019-11-10T14:50:59.001Z</time>
      </trkpt>
      <trkpt lat="47.99712" lon="-1.75792">
        <ele>30.698</ele>
        <time>2019-11-10T14:51:32.001Z</time>
      </trkpt>
      <trkpt lat="47.9972" lon="-1.75995">
        <ele>32.824</ele>
        <time>2019-11-10T14:52:05.001Z</time>
      </trkpt>
      <trkpt lat="47.9974" lon="-1.762">
        <ele>30.719</ele>
        <time>2019-11-10T14:52:38.001Z</time>
      </trkpt>
      <trkpt lat="47.99792" lon="-1.76399">
        <ele>27.352</ele>
        <time>2019-11-10T14:53:11.001Z</time>
      </trkpt>
      <trkpt lat="47.99916" lon="-1.76497">
        <ele>15.255</ele>
        <time>2019-11-10T14:53:44.001Z</time>
      </trkpt>
      <trkpt lat="47.99982" lon="-1.76315">
        <ele>13.331</ele>
        <time>2019-11-10T14:54:17.001Z</time>
      </trkpt>
      <trkpt lat="48.00104" lon="-1.76221">
        <ele>13.97</ele>
        <time>2019-11-10T14:54:50.001Z</time>
      </trkpt>
      <trkpt lat="48.00186" lon="-1.76364">
        <ele>14.712</ele>
        <time>2019-11-10T14:55:23.001Z</time>
      </trkpt>
      <trkpt lat="48.00203" lon="-1.76585">
        <ele>10.987</ele>
        <time>2019-11-10T14:55:56.001Z</time>
      </trkpt>
      <trkpt lat="48.00231" lon="-1.76784">
        <ele>14.982</ele>
        <time>2019-11-10T14:56:29.001Z</time>
      </trkpt>
      <trkpt lat="48.00211" lon="-1.77">
        <ele>15.78</ele>
        <time>2019-11-10T14:57:02Z</time>
      </trkpt>
      <trkpt lat="48.00221" lon="-1.77186">
        <ele>20.128</ele>
        <time>2019-11-10T14:57:35.001Z</time>
      </trkpt>
      <trkpt lat="48.00225" lon="-1.77316">
        <ele>23.678</ele>
        <time>2019-11-10T14:58:11.001Z</time>
      </trkpt>
      <trkpt lat="48.00224" lon="-1.77419">
        <ele>19.342</ele>
        <time>2019-11-10T15:01:50.001Z</time>
      </trkpt>
      <trkpt lat="48.00219" lon="-1.77502">
        <ele>19.644</ele>
        <time>2019-11-10T15:02:29.001Z</time>
      </trkpt>
    </trkseg>
  </trk>
</gpx>